<?xml version="1.0" encoding="UTF-8" standalone="no" ?>
<gpx xmlns="http://www.topografix.com/GPX/1/1" xmlns:xsi="http://www.w3.org/2001/XMLSchema-instance" xsi:schemaLocation="http://www.topografix.com/GPX/1/1 http://www.topografix.com/GPX/1/1/gpx.xsd" version="1.1" creator="VisuGPX - https://www.visugpx.com">
  <metadata>
    <name>Triel et quai de Seine</name>
    <desc><![CDATA[Triel et quai de Seine coteaux ]]></desc>
  </metadata>
  <trk>
    <name><![CDATA[MA-Rando-2019-03-02-162822]]></name>
    <trkseg>
      <trkpt lat="48.98102" lon="2.00569">
        <ele>53</ele>
        <time>2019-03-02T14:05:10Z</time>
      </trkpt>
      <trkpt lat="48.9811" lon="2.00557">
        <ele>52</ele>
        <time>2019-03-02T14:05:20Z</time>
      </trkpt>
      <trkpt lat="48.98113" lon="2.00544">
        <ele>52</ele>
        <time>2019-03-02T14:05:27Z</time>
      </trkpt>
      <trkpt lat="48.98121" lon="2.00533">
        <ele>51</ele>
        <time>2019-03-02T14:05:34Z</time>
      </trkpt>
      <trkpt lat="48.98129" lon="2.00523">
        <ele>51</ele>
        <time>2019-03-02T14:05:43Z</time>
      </trkpt>
      <trkpt lat="48.98137" lon="2.00515">
        <ele>51</ele>
        <time>2019-03-02T14:05:53Z</time>
      </trkpt>
      <trkpt lat="48.98145" lon="2.00506">
        <ele>51</ele>
        <time>2019-03-02T14:06:01Z</time>
      </trkpt>
      <trkpt lat="48.98153" lon="2.00498">
        <ele>47</ele>
        <time>2019-03-02T14:06:08Z</time>
      </trkpt>
      <trkpt lat="48.98163" lon="2.00493">
        <ele>48</ele>
        <time>2019-03-02T14:06:16Z</time>
      </trkpt>
      <trkpt lat="48.98171" lon="2.00485">
        <ele>49</ele>
        <time>2019-03-02T14:06:26Z</time>
      </trkpt>
      <trkpt lat="48.98179" lon="2.00479">
        <ele>48</ele>
        <time>2019-03-02T14:06:34Z</time>
      </trkpt>
      <trkpt lat="48.98188" lon="2.00472">
        <ele>48</ele>
        <time>2019-03-02T14:06:42Z</time>
      </trkpt>
      <trkpt lat="48.98197" lon="2.00466">
        <ele>48</ele>
        <time>2019-03-02T14:06:48Z</time>
      </trkpt>
      <trkpt lat="48.98206" lon="2.00462">
        <ele>48</ele>
        <time>2019-03-02T14:06:54Z</time>
      </trkpt>
      <trkpt lat="48.98214" lon="2.00452">
        <ele>48</ele>
        <time>2019-03-02T14:07:01Z</time>
      </trkpt>
      <trkpt lat="48.98221" lon="2.00443">
        <ele>48</ele>
        <time>2019-03-02T14:07:08Z</time>
      </trkpt>
      <trkpt lat="48.98226" lon="2.00431">
        <ele>47</ele>
        <time>2019-03-02T14:07:26Z</time>
      </trkpt>
      <trkpt lat="48.98234" lon="2.00421">
        <ele>47</ele>
        <time>2019-03-02T14:07:30Z</time>
      </trkpt>
      <trkpt lat="48.9824" lon="2.00408">
        <ele>45</ele>
        <time>2019-03-02T14:07:36Z</time>
      </trkpt>
      <trkpt lat="48.98247" lon="2.00397">
        <ele>44</ele>
        <time>2019-03-02T14:07:43Z</time>
      </trkpt>
      <trkpt lat="48.98254" lon="2.00387">
        <ele>46</ele>
        <time>2019-03-02T14:07:48Z</time>
      </trkpt>
      <trkpt lat="48.98262" lon="2.00382">
        <ele>46</ele>
        <time>2019-03-02T14:07:55Z</time>
      </trkpt>
      <trkpt lat="48.98272" lon="2.00381">
        <ele>46</ele>
        <time>2019-03-02T14:08:02Z</time>
      </trkpt>
      <trkpt lat="48.9828" lon="2.00375">
        <ele>46</ele>
        <time>2019-03-02T14:08:08Z</time>
      </trkpt>
      <trkpt lat="48.98287" lon="2.00365">
        <ele>47</ele>
        <time>2019-03-02T14:08:16Z</time>
      </trkpt>
      <trkpt lat="48.98293" lon="2.00355">
        <ele>47</ele>
        <time>2019-03-02T14:08:22Z</time>
      </trkpt>
      <trkpt lat="48.98301" lon="2.00347">
        <ele>47</ele>
        <time>2019-03-02T14:08:28Z</time>
      </trkpt>
      <trkpt lat="48.98299" lon="2.00332">
        <ele>46</ele>
        <time>2019-03-02T14:08:34Z</time>
      </trkpt>
      <trkpt lat="48.98291" lon="2.00322">
        <ele>45</ele>
        <time>2019-03-02T14:08:43Z</time>
      </trkpt>
      <trkpt lat="48.98284" lon="2.00314">
        <ele>45</ele>
        <time>2019-03-02T14:08:51Z</time>
      </trkpt>
      <trkpt lat="48.98256" lon="2.00292">
        <ele>44</ele>
        <time>2019-03-02T14:09:10Z</time>
      </trkpt>
      <trkpt lat="48.98246" lon="2.00286">
        <ele>40</ele>
        <time>2019-03-02T14:09:14Z</time>
      </trkpt>
      <trkpt lat="48.98238" lon="2.00267">
        <ele>40</ele>
        <time>2019-03-02T14:09:17Z</time>
      </trkpt>
      <trkpt lat="48.98233" lon="2.00255">
        <ele>40</ele>
        <time>2019-03-02T14:09:31Z</time>
      </trkpt>
      <trkpt lat="48.98225" lon="2.00246">
        <ele>36</ele>
        <time>2019-03-02T14:09:38Z</time>
      </trkpt>
      <trkpt lat="48.98216" lon="2.00242">
        <ele>35</ele>
        <time>2019-03-02T14:09:46Z</time>
      </trkpt>
      <trkpt lat="48.9822" lon="2.00229">
        <ele>35</ele>
        <time>2019-03-02T14:10:12Z</time>
      </trkpt>
      <trkpt lat="48.98228" lon="2.00221">
        <ele>35</ele>
        <time>2019-03-02T14:10:19Z</time>
      </trkpt>
      <trkpt lat="48.98235" lon="2.0021">
        <ele>34</ele>
        <time>2019-03-02T14:10:26Z</time>
      </trkpt>
      <trkpt lat="48.98244" lon="2.00202">
        <ele>34</ele>
        <time>2019-03-02T14:10:33Z</time>
      </trkpt>
      <trkpt lat="48.98252" lon="2.00193">
        <ele>38</ele>
        <time>2019-03-02T14:10:40Z</time>
      </trkpt>
      <trkpt lat="48.98251" lon="2.00177">
        <ele>36</ele>
        <time>2019-03-02T14:11:01Z</time>
      </trkpt>
      <trkpt lat="48.98245" lon="2.00166">
        <ele>32</ele>
        <time>2019-03-02T14:11:08Z</time>
      </trkpt>
      <trkpt lat="48.98237" lon="2.00154">
        <ele>30</ele>
        <time>2019-03-02T14:11:15Z</time>
      </trkpt>
      <trkpt lat="48.98234" lon="2.0014">
        <ele>28</ele>
        <time>2019-03-02T14:11:21Z</time>
      </trkpt>
      <trkpt lat="48.98231" lon="2.00125">
        <ele>28</ele>
        <time>2019-03-02T14:11:27Z</time>
      </trkpt>
      <trkpt lat="48.98223" lon="2.00114">
        <ele>27</ele>
        <time>2019-03-02T14:11:34Z</time>
      </trkpt>
      <trkpt lat="48.98217" lon="2.00104">
        <ele>27</ele>
        <time>2019-03-02T14:11:41Z</time>
      </trkpt>
      <trkpt lat="48.98211" lon="2.00092">
        <ele>26</ele>
        <time>2019-03-02T14:11:49Z</time>
      </trkpt>
      <trkpt lat="48.98205" lon="2.00079">
        <ele>23</ele>
        <time>2019-03-02T14:11:56Z</time>
      </trkpt>
      <trkpt lat="48.98201" lon="2.00066">
        <ele>23</ele>
        <time>2019-03-02T14:12:02Z</time>
      </trkpt>
      <trkpt lat="48.98196" lon="2.00052">
        <ele>23</ele>
        <time>2019-03-02T14:12:08Z</time>
      </trkpt>
      <trkpt lat="48.98191" lon="2.00041">
        <ele>22</ele>
        <time>2019-03-02T14:12:17Z</time>
      </trkpt>
      <trkpt lat="48.98194" lon="2.00028">
        <ele>22</ele>
        <time>2019-03-02T14:13:11Z</time>
      </trkpt>
      <trkpt lat="48.98207" lon="2.00022">
        <ele>22</ele>
        <time>2019-03-02T14:13:27Z</time>
      </trkpt>
      <trkpt lat="48.98217" lon="2.00016">
        <ele>22</ele>
        <time>2019-03-02T14:13:32Z</time>
      </trkpt>
      <trkpt lat="48.98227" lon="2.00017">
        <ele>23</ele>
        <time>2019-03-02T14:13:38Z</time>
      </trkpt>
      <trkpt lat="48.98236" lon="2.00013">
        <ele>22</ele>
        <time>2019-03-02T14:13:48Z</time>
      </trkpt>
      <trkpt lat="48.98245" lon="2.00004">
        <ele>22</ele>
        <time>2019-03-02T14:13:56Z</time>
      </trkpt>
      <trkpt lat="48.98252" lon="1.99995">
        <ele>22</ele>
        <time>2019-03-02T14:14:01Z</time>
      </trkpt>
      <trkpt lat="48.98261" lon="1.99991">
        <ele>22</ele>
        <time>2019-03-02T14:14:09Z</time>
      </trkpt>
      <trkpt lat="48.98271" lon="1.99987">
        <ele>21</ele>
        <time>2019-03-02T14:14:18Z</time>
      </trkpt>
      <trkpt lat="48.98278" lon="1.99977">
        <ele>21</ele>
        <time>2019-03-02T14:14:24Z</time>
      </trkpt>
      <trkpt lat="48.98287" lon="1.99972">
        <ele>21</ele>
        <time>2019-03-02T14:14:30Z</time>
      </trkpt>
      <trkpt lat="48.98296" lon="1.9997">
        <ele>21</ele>
        <time>2019-03-02T14:14:36Z</time>
      </trkpt>
      <trkpt lat="48.98305" lon="1.99968">
        <ele>21</ele>
        <time>2019-03-02T14:14:43Z</time>
      </trkpt>
      <trkpt lat="48.98314" lon="1.99959">
        <ele>21</ele>
        <time>2019-03-02T14:14:50Z</time>
      </trkpt>
      <trkpt lat="48.98323" lon="1.99953">
        <ele>21</ele>
        <time>2019-03-02T14:14:56Z</time>
      </trkpt>
      <trkpt lat="48.98332" lon="1.9995">
        <ele>21</ele>
        <time>2019-03-02T14:15:06Z</time>
      </trkpt>
      <trkpt lat="48.9834" lon="1.99943">
        <ele>24</ele>
        <time>2019-03-02T14:15:11Z</time>
      </trkpt>
      <trkpt lat="48.98351" lon="1.9994">
        <ele>24</ele>
        <time>2019-03-02T14:15:15Z</time>
      </trkpt>
      <trkpt lat="48.98359" lon="1.99933">
        <ele>24</ele>
        <time>2019-03-02T14:15:23Z</time>
      </trkpt>
      <trkpt lat="48.98368" lon="1.99928">
        <ele>25</ele>
        <time>2019-03-02T14:15:28Z</time>
      </trkpt>
      <trkpt lat="48.98377" lon="1.99921">
        <ele>25</ele>
        <time>2019-03-02T14:15:34Z</time>
      </trkpt>
      <trkpt lat="48.98385" lon="1.99915">
        <ele>23</ele>
        <time>2019-03-02T14:15:40Z</time>
      </trkpt>
      <trkpt lat="48.98393" lon="1.99907">
        <ele>23</ele>
        <time>2019-03-02T14:15:46Z</time>
      </trkpt>
      <trkpt lat="48.98401" lon="1.999">
        <ele>23</ele>
        <time>2019-03-02T14:15:53Z</time>
      </trkpt>
      <trkpt lat="48.98409" lon="1.99892">
        <ele>23</ele>
        <time>2019-03-02T14:16:01Z</time>
      </trkpt>
      <trkpt lat="48.98418" lon="1.99885">
        <ele>27</ele>
        <time>2019-03-02T14:16:08Z</time>
      </trkpt>
      <trkpt lat="48.98426" lon="1.99879">
        <ele>27</ele>
        <time>2019-03-02T14:16:17Z</time>
      </trkpt>
      <trkpt lat="48.98433" lon="1.99868">
        <ele>27</ele>
        <time>2019-03-02T14:16:23Z</time>
      </trkpt>
      <trkpt lat="48.9844" lon="1.99857">
        <ele>27</ele>
        <time>2019-03-02T14:16:30Z</time>
      </trkpt>
      <trkpt lat="48.98447" lon="1.99845">
        <ele>27</ele>
        <time>2019-03-02T14:16:37Z</time>
      </trkpt>
      <trkpt lat="48.98454" lon="1.99834">
        <ele>27</ele>
        <time>2019-03-02T14:16:44Z</time>
      </trkpt>
      <trkpt lat="48.98461" lon="1.99823">
        <ele>24</ele>
        <time>2019-03-02T14:16:50Z</time>
      </trkpt>
      <trkpt lat="48.98469" lon="1.99815">
        <ele>24</ele>
        <time>2019-03-02T14:16:58Z</time>
      </trkpt>
      <trkpt lat="48.98476" lon="1.99806">
        <ele>24</ele>
        <time>2019-03-02T14:17:05Z</time>
      </trkpt>
      <trkpt lat="48.98481" lon="1.99794">
        <ele>24</ele>
        <time>2019-03-02T14:17:13Z</time>
      </trkpt>
      <trkpt lat="48.98488" lon="1.99782">
        <ele>24</ele>
        <time>2019-03-02T14:17:20Z</time>
      </trkpt>
      <trkpt lat="48.98495" lon="1.99771">
        <ele>24</ele>
        <time>2019-03-02T14:17:27Z</time>
      </trkpt>
      <trkpt lat="48.98501" lon="1.99757">
        <ele>26</ele>
        <time>2019-03-02T14:17:32Z</time>
      </trkpt>
      <trkpt lat="48.98507" lon="1.99747">
        <ele>24</ele>
        <time>2019-03-02T14:17:38Z</time>
      </trkpt>
      <trkpt lat="48.98515" lon="1.99737">
        <ele>24</ele>
        <time>2019-03-02T14:17:47Z</time>
      </trkpt>
      <trkpt lat="48.98522" lon="1.99729">
        <ele>24</ele>
        <time>2019-03-02T14:17:54Z</time>
      </trkpt>
      <trkpt lat="48.98532" lon="1.99723">
        <ele>24</ele>
        <time>2019-03-02T14:18:39Z</time>
      </trkpt>
      <trkpt lat="48.98539" lon="1.99712">
        <ele>24</ele>
        <time>2019-03-02T14:18:46Z</time>
      </trkpt>
      <trkpt lat="48.98547" lon="1.99703">
        <ele>24</ele>
        <time>2019-03-02T14:18:53Z</time>
      </trkpt>
      <trkpt lat="48.98552" lon="1.99692">
        <ele>24</ele>
        <time>2019-03-02T14:19:01Z</time>
      </trkpt>
      <trkpt lat="48.9856" lon="1.99683">
        <ele>24</ele>
        <time>2019-03-02T14:19:09Z</time>
      </trkpt>
      <trkpt lat="48.98569" lon="1.99674">
        <ele>25</ele>
        <time>2019-03-02T14:19:17Z</time>
      </trkpt>
      <trkpt lat="48.98577" lon="1.99664">
        <ele>25</ele>
        <time>2019-03-02T14:19:25Z</time>
      </trkpt>
      <trkpt lat="48.98583" lon="1.99651">
        <ele>24</ele>
        <time>2019-03-02T14:19:32Z</time>
      </trkpt>
      <trkpt lat="48.98589" lon="1.99638">
        <ele>27</ele>
        <time>2019-03-02T14:19:39Z</time>
      </trkpt>
      <trkpt lat="48.98596" lon="1.99627">
        <ele>27</ele>
        <time>2019-03-02T14:19:46Z</time>
      </trkpt>
      <trkpt lat="48.98603" lon="1.99617">
        <ele>27</ele>
        <time>2019-03-02T14:19:52Z</time>
      </trkpt>
      <trkpt lat="48.98609" lon="1.99606">
        <ele>27</ele>
        <time>2019-03-02T14:19:58Z</time>
      </trkpt>
      <trkpt lat="48.98618" lon="1.99599">
        <ele>27</ele>
        <time>2019-03-02T14:20:08Z</time>
      </trkpt>
      <trkpt lat="48.98624" lon="1.99589">
        <ele>27</ele>
        <time>2019-03-02T14:20:15Z</time>
      </trkpt>
      <trkpt lat="48.98632" lon="1.9958">
        <ele>24</ele>
        <time>2019-03-02T14:20:22Z</time>
      </trkpt>
      <trkpt lat="48.98637" lon="1.99568">
        <ele>24</ele>
        <time>2019-03-02T14:20:29Z</time>
      </trkpt>
      <trkpt lat="48.98644" lon="1.99557">
        <ele>24</ele>
        <time>2019-03-02T14:20:35Z</time>
      </trkpt>
      <trkpt lat="48.9865" lon="1.99546">
        <ele>24</ele>
        <time>2019-03-02T14:20:42Z</time>
      </trkpt>
      <trkpt lat="48.98657" lon="1.99532">
        <ele>23</ele>
        <time>2019-03-02T14:20:51Z</time>
      </trkpt>
      <trkpt lat="48.98664" lon="1.99522">
        <ele>23</ele>
        <time>2019-03-02T14:20:57Z</time>
      </trkpt>
      <trkpt lat="48.9867" lon="1.9951">
        <ele>25</ele>
        <time>2019-03-02T14:21:03Z</time>
      </trkpt>
      <trkpt lat="48.98676" lon="1.99498">
        <ele>24</ele>
        <time>2019-03-02T14:21:10Z</time>
      </trkpt>
      <trkpt lat="48.98681" lon="1.99486">
        <ele>25</ele>
        <time>2019-03-02T14:21:17Z</time>
      </trkpt>
      <trkpt lat="48.98686" lon="1.99473">
        <ele>25</ele>
        <time>2019-03-02T14:21:23Z</time>
      </trkpt>
      <trkpt lat="48.98691" lon="1.99459">
        <ele>25</ele>
        <time>2019-03-02T14:21:30Z</time>
      </trkpt>
      <trkpt lat="48.98696" lon="1.99446">
        <ele>25</ele>
        <time>2019-03-02T14:21:38Z</time>
      </trkpt>
      <trkpt lat="48.98701" lon="1.99433">
        <ele>25</ele>
        <time>2019-03-02T14:21:47Z</time>
      </trkpt>
      <trkpt lat="48.98703" lon="1.99419">
        <ele>25</ele>
        <time>2019-03-02T14:22:09Z</time>
      </trkpt>
      <trkpt lat="48.9871" lon="1.9941">
        <ele>23</ele>
        <time>2019-03-02T14:22:14Z</time>
      </trkpt>
      <trkpt lat="48.98719" lon="1.99403">
        <ele>23</ele>
        <time>2019-03-02T14:22:20Z</time>
      </trkpt>
      <trkpt lat="48.98726" lon="1.99392">
        <ele>23</ele>
        <time>2019-03-02T14:22:27Z</time>
      </trkpt>
      <trkpt lat="48.98733" lon="1.99381">
        <ele>23</ele>
        <time>2019-03-02T14:22:34Z</time>
      </trkpt>
      <trkpt lat="48.98739" lon="1.99368">
        <ele>23</ele>
        <time>2019-03-02T14:22:40Z</time>
      </trkpt>
      <trkpt lat="48.98745" lon="1.99357">
        <ele>23</ele>
        <time>2019-03-02T14:22:47Z</time>
      </trkpt>
      <trkpt lat="48.98751" lon="1.99346">
        <ele>25</ele>
        <time>2019-03-02T14:23:00Z</time>
      </trkpt>
      <trkpt lat="48.98758" lon="1.99335">
        <ele>25</ele>
        <time>2019-03-02T14:23:09Z</time>
      </trkpt>
      <trkpt lat="48.98769" lon="1.99317">
        <ele>23</ele>
        <time>2019-03-02T14:23:29Z</time>
      </trkpt>
      <trkpt lat="48.98777" lon="1.99308">
        <ele>23</ele>
        <time>2019-03-02T14:23:31Z</time>
      </trkpt>
      <trkpt lat="48.98784" lon="1.99299">
        <ele>23</ele>
        <time>2019-03-02T14:23:38Z</time>
      </trkpt>
      <trkpt lat="48.98788" lon="1.99286">
        <ele>22</ele>
        <time>2019-03-02T14:23:46Z</time>
      </trkpt>
      <trkpt lat="48.98795" lon="1.99276">
        <ele>22</ele>
        <time>2019-03-02T14:24:11Z</time>
      </trkpt>
      <trkpt lat="48.98801" lon="1.99267">
        <ele>22</ele>
        <time>2019-03-02T14:24:21Z</time>
      </trkpt>
      <trkpt lat="48.9881" lon="1.9926">
        <ele>23</ele>
        <time>2019-03-02T14:24:32Z</time>
      </trkpt>
      <trkpt lat="48.98818" lon="1.9925">
        <ele>23</ele>
        <time>2019-03-02T14:24:38Z</time>
      </trkpt>
      <trkpt lat="48.98826" lon="1.99242">
        <ele>22</ele>
        <time>2019-03-02T14:24:45Z</time>
      </trkpt>
      <trkpt lat="48.98833" lon="1.99233">
        <ele>21</ele>
        <time>2019-03-02T14:24:53Z</time>
      </trkpt>
      <trkpt lat="48.9884" lon="1.99224">
        <ele>23</ele>
        <time>2019-03-02T14:25:01Z</time>
      </trkpt>
      <trkpt lat="48.98845" lon="1.99213">
        <ele>23</ele>
        <time>2019-03-02T14:25:09Z</time>
      </trkpt>
      <trkpt lat="48.98853" lon="1.99203">
        <ele>23</ele>
        <time>2019-03-02T14:25:16Z</time>
      </trkpt>
      <trkpt lat="48.98861" lon="1.99195">
        <ele>23</ele>
        <time>2019-03-02T14:25:23Z</time>
      </trkpt>
      <trkpt lat="48.98869" lon="1.99187">
        <ele>23</ele>
        <time>2019-03-02T14:25:31Z</time>
      </trkpt>
      <trkpt lat="48.98875" lon="1.99176">
        <ele>23</ele>
        <time>2019-03-02T14:25:37Z</time>
      </trkpt>
      <trkpt lat="48.98883" lon="1.99168">
        <ele>24</ele>
        <time>2019-03-02T14:25:45Z</time>
      </trkpt>
      <trkpt lat="48.98891" lon="1.99159">
        <ele>22</ele>
        <time>2019-03-02T14:25:54Z</time>
      </trkpt>
      <trkpt lat="48.98897" lon="1.99149">
        <ele>22</ele>
        <time>2019-03-02T14:26:01Z</time>
      </trkpt>
      <trkpt lat="48.98904" lon="1.9914">
        <ele>22</ele>
        <time>2019-03-02T14:26:08Z</time>
      </trkpt>
      <trkpt lat="48.98912" lon="1.99148">
        <ele>23</ele>
        <time>2019-03-02T14:26:29Z</time>
      </trkpt>
      <trkpt lat="48.98919" lon="1.99159">
        <ele>26</ele>
        <time>2019-03-02T14:26:36Z</time>
      </trkpt>
      <trkpt lat="48.98925" lon="1.99171">
        <ele>27</ele>
        <time>2019-03-02T14:26:45Z</time>
      </trkpt>
      <trkpt lat="48.98931" lon="1.99182">
        <ele>28</ele>
        <time>2019-03-02T14:26:54Z</time>
      </trkpt>
      <trkpt lat="48.98938" lon="1.99194">
        <ele>29</ele>
        <time>2019-03-02T14:27:01Z</time>
      </trkpt>
      <trkpt lat="48.98945" lon="1.99205">
        <ele>29</ele>
        <time>2019-03-02T14:27:09Z</time>
      </trkpt>
      <trkpt lat="48.98952" lon="1.99216">
        <ele>30</ele>
        <time>2019-03-02T14:27:17Z</time>
      </trkpt>
      <trkpt lat="48.98958" lon="1.99227">
        <ele>30</ele>
        <time>2019-03-02T14:27:25Z</time>
      </trkpt>
      <trkpt lat="48.98966" lon="1.99235">
        <ele>30</ele>
        <time>2019-03-02T14:27:34Z</time>
      </trkpt>
      <trkpt lat="48.98975" lon="1.99235">
        <ele>31</ele>
        <time>2019-03-02T14:27:45Z</time>
      </trkpt>
      <trkpt lat="48.98983" lon="1.99227">
        <ele>31</ele>
        <time>2019-03-02T14:27:53Z</time>
      </trkpt>
      <trkpt lat="48.98989" lon="1.99216">
        <ele>31</ele>
        <time>2019-03-02T14:28:01Z</time>
      </trkpt>
      <trkpt lat="48.98995" lon="1.99205">
        <ele>30</ele>
        <time>2019-03-02T14:28:09Z</time>
      </trkpt>
      <trkpt lat="48.99005" lon="1.99198">
        <ele>33</ele>
        <time>2019-03-02T14:28:14Z</time>
      </trkpt>
      <trkpt lat="48.99012" lon="1.99188">
        <ele>33</ele>
        <time>2019-03-02T14:28:24Z</time>
      </trkpt>
      <trkpt lat="48.99018" lon="1.99175">
        <ele>33</ele>
        <time>2019-03-02T14:28:36Z</time>
      </trkpt>
      <trkpt lat="48.99026" lon="1.99164">
        <ele>30</ele>
        <time>2019-03-02T14:28:42Z</time>
      </trkpt>
      <trkpt lat="48.99035" lon="1.99155">
        <ele>30</ele>
        <time>2019-03-02T14:28:47Z</time>
      </trkpt>
      <trkpt lat="48.99045" lon="1.99153">
        <ele>30</ele>
        <time>2019-03-02T14:28:56Z</time>
      </trkpt>
      <trkpt lat="48.99052" lon="1.99143">
        <ele>30</ele>
        <time>2019-03-02T14:29:06Z</time>
      </trkpt>
      <trkpt lat="48.99062" lon="1.99142">
        <ele>30</ele>
        <time>2019-03-02T14:29:12Z</time>
      </trkpt>
      <trkpt lat="48.99069" lon="1.99153">
        <ele>31</ele>
        <time>2019-03-02T14:29:21Z</time>
      </trkpt>
      <trkpt lat="48.99077" lon="1.99161">
        <ele>33</ele>
        <time>2019-03-02T14:29:28Z</time>
      </trkpt>
      <trkpt lat="48.99084" lon="1.99172">
        <ele>36</ele>
        <time>2019-03-02T14:29:33Z</time>
      </trkpt>
      <trkpt lat="48.99092" lon="1.99179">
        <ele>40</ele>
        <time>2019-03-02T14:29:39Z</time>
      </trkpt>
      <trkpt lat="48.99101" lon="1.99174">
        <ele>41</ele>
        <time>2019-03-02T14:29:45Z</time>
      </trkpt>
      <trkpt lat="48.99109" lon="1.99168">
        <ele>42</ele>
        <time>2019-03-02T14:29:53Z</time>
      </trkpt>
      <trkpt lat="48.99117" lon="1.99163">
        <ele>39</ele>
        <time>2019-03-02T14:30:01Z</time>
      </trkpt>
      <trkpt lat="48.99125" lon="1.99152">
        <ele>39</ele>
        <time>2019-03-02T14:30:10Z</time>
      </trkpt>
      <trkpt lat="48.99133" lon="1.99142">
        <ele>40</ele>
        <time>2019-03-02T14:30:16Z</time>
      </trkpt>
      <trkpt lat="48.9914" lon="1.99131">
        <ele>40</ele>
        <time>2019-03-02T14:30:23Z</time>
      </trkpt>
      <trkpt lat="48.99146" lon="1.99119">
        <ele>40</ele>
        <time>2019-03-02T14:30:33Z</time>
      </trkpt>
      <trkpt lat="48.99153" lon="1.99109">
        <ele>40</ele>
        <time>2019-03-02T14:30:41Z</time>
      </trkpt>
      <trkpt lat="48.9916" lon="1.99099">
        <ele>41</ele>
        <time>2019-03-02T14:30:50Z</time>
      </trkpt>
      <trkpt lat="48.99165" lon="1.99088">
        <ele>41</ele>
        <time>2019-03-02T14:30:56Z</time>
      </trkpt>
      <trkpt lat="48.99169" lon="1.99075">
        <ele>43</ele>
        <time>2019-03-02T14:31:05Z</time>
      </trkpt>
      <trkpt lat="48.99176" lon="1.99064">
        <ele>43</ele>
        <time>2019-03-02T14:31:10Z</time>
      </trkpt>
      <trkpt lat="48.99183" lon="1.99055">
        <ele>43</ele>
        <time>2019-03-02T14:31:16Z</time>
      </trkpt>
      <trkpt lat="48.9919" lon="1.99044">
        <ele>43</ele>
        <time>2019-03-02T14:31:23Z</time>
      </trkpt>
      <trkpt lat="48.99198" lon="1.99035">
        <ele>43</ele>
        <time>2019-03-02T14:31:31Z</time>
      </trkpt>
      <trkpt lat="48.99204" lon="1.99024">
        <ele>43</ele>
        <time>2019-03-02T14:31:36Z</time>
      </trkpt>
      <trkpt lat="48.99211" lon="1.99014">
        <ele>43</ele>
        <time>2019-03-02T14:31:43Z</time>
      </trkpt>
      <trkpt lat="48.99216" lon="1.99002">
        <ele>43</ele>
        <time>2019-03-02T14:31:50Z</time>
      </trkpt>
      <trkpt lat="48.99223" lon="1.98992">
        <ele>37</ele>
        <time>2019-03-02T14:31:57Z</time>
      </trkpt>
      <trkpt lat="48.9923" lon="1.98982">
        <ele>37</ele>
        <time>2019-03-02T14:32:04Z</time>
      </trkpt>
      <trkpt lat="48.99236" lon="1.98971">
        <ele>37</ele>
        <time>2019-03-02T14:32:12Z</time>
      </trkpt>
      <trkpt lat="48.99243" lon="1.98961">
        <ele>36</ele>
        <time>2019-03-02T14:32:20Z</time>
      </trkpt>
      <trkpt lat="48.99251" lon="1.98956">
        <ele>43</ele>
        <time>2019-03-02T14:32:28Z</time>
      </trkpt>
      <trkpt lat="48.9926" lon="1.98962">
        <ele>44</ele>
        <time>2019-03-02T14:32:36Z</time>
      </trkpt>
      <trkpt lat="48.99269" lon="1.98966">
        <ele>45</ele>
        <time>2019-03-02T14:32:47Z</time>
      </trkpt>
      <trkpt lat="48.99277" lon="1.98974">
        <ele>46</ele>
        <time>2019-03-02T14:33:11Z</time>
      </trkpt>
      <trkpt lat="48.99285" lon="1.98978">
        <ele>47</ele>
        <time>2019-03-02T14:33:58Z</time>
      </trkpt>
      <trkpt lat="48.99287" lon="1.98992">
        <ele>47</ele>
        <time>2019-03-02T14:34:19Z</time>
      </trkpt>
      <trkpt lat="48.99284" lon="1.99005">
        <ele>54</ele>
        <time>2019-03-02T14:34:27Z</time>
      </trkpt>
      <trkpt lat="48.99281" lon="1.99019">
        <ele>54</ele>
        <time>2019-03-02T14:34:38Z</time>
      </trkpt>
      <trkpt lat="48.99276" lon="1.99032">
        <ele>55</ele>
        <time>2019-03-02T14:34:47Z</time>
      </trkpt>
      <trkpt lat="48.99271" lon="1.99044">
        <ele>56</ele>
        <time>2019-03-02T14:34:57Z</time>
      </trkpt>
      <trkpt lat="48.99267" lon="1.99057">
        <ele>56</ele>
        <time>2019-03-02T14:35:26Z</time>
      </trkpt>
      <trkpt lat="48.99269" lon="1.99072">
        <ele>57</ele>
        <time>2019-03-02T14:35:48Z</time>
      </trkpt>
      <trkpt lat="48.99276" lon="1.9908">
        <ele>58</ele>
        <time>2019-03-02T14:36:00Z</time>
      </trkpt>
      <trkpt lat="48.99286" lon="1.99089">
        <ele>64</ele>
        <time>2019-03-02T14:36:14Z</time>
      </trkpt>
      <trkpt lat="48.99294" lon="1.99095">
        <ele>65</ele>
        <time>2019-03-02T14:36:24Z</time>
      </trkpt>
      <trkpt lat="48.99303" lon="1.99097">
        <ele>65</ele>
        <time>2019-03-02T14:36:34Z</time>
      </trkpt>
      <trkpt lat="48.99312" lon="1.99099">
        <ele>65</ele>
        <time>2019-03-02T14:36:45Z</time>
      </trkpt>
      <trkpt lat="48.99319" lon="1.9911">
        <ele>66</ele>
        <time>2019-03-02T14:37:05Z</time>
      </trkpt>
      <trkpt lat="48.99326" lon="1.99121">
        <ele>66</ele>
        <time>2019-03-02T14:37:14Z</time>
      </trkpt>
      <trkpt lat="48.99334" lon="1.99128">
        <ele>72</ele>
        <time>2019-03-02T14:37:21Z</time>
      </trkpt>
      <trkpt lat="48.99343" lon="1.99135">
        <ele>72</ele>
        <time>2019-03-02T14:37:28Z</time>
      </trkpt>
      <trkpt lat="48.99349" lon="1.99145">
        <ele>73</ele>
        <time>2019-03-02T14:37:36Z</time>
      </trkpt>
      <trkpt lat="48.99359" lon="1.9914">
        <ele>73</ele>
        <time>2019-03-02T14:37:45Z</time>
      </trkpt>
      <trkpt lat="48.99368" lon="1.99135">
        <ele>73</ele>
        <time>2019-03-02T14:37:51Z</time>
      </trkpt>
      <trkpt lat="48.99377" lon="1.99126">
        <ele>73</ele>
        <time>2019-03-02T14:37:58Z</time>
      </trkpt>
      <trkpt lat="48.99384" lon="1.99117">
        <ele>73</ele>
        <time>2019-03-02T14:38:04Z</time>
      </trkpt>
      <trkpt lat="48.99392" lon="1.99109">
        <ele>74</ele>
        <time>2019-03-02T14:38:11Z</time>
      </trkpt>
      <trkpt lat="48.994" lon="1.99101">
        <ele>74</ele>
        <time>2019-03-02T14:38:18Z</time>
      </trkpt>
      <trkpt lat="48.99406" lon="1.99091">
        <ele>74</ele>
        <time>2019-03-02T14:38:25Z</time>
      </trkpt>
      <trkpt lat="48.99412" lon="1.9908">
        <ele>74</ele>
        <time>2019-03-02T14:38:32Z</time>
      </trkpt>
      <trkpt lat="48.99418" lon="1.99067">
        <ele>77</ele>
        <time>2019-03-02T14:38:39Z</time>
      </trkpt>
      <trkpt lat="48.9942" lon="1.99053">
        <ele>77</ele>
        <time>2019-03-02T14:38:46Z</time>
      </trkpt>
      <trkpt lat="48.99426" lon="1.99041">
        <ele>77</ele>
        <time>2019-03-02T14:38:54Z</time>
      </trkpt>
      <trkpt lat="48.99433" lon="1.99032">
        <ele>77</ele>
        <time>2019-03-02T14:39:00Z</time>
      </trkpt>
      <trkpt lat="48.99442" lon="1.99024">
        <ele>78</ele>
        <time>2019-03-02T14:39:07Z</time>
      </trkpt>
      <trkpt lat="48.99449" lon="1.99012">
        <ele>78</ele>
        <time>2019-03-02T14:39:15Z</time>
      </trkpt>
      <trkpt lat="48.99455" lon="1.99001">
        <ele>78</ele>
        <time>2019-03-02T14:39:22Z</time>
      </trkpt>
      <trkpt lat="48.99462" lon="1.98992">
        <ele>78</ele>
        <time>2019-03-02T14:39:28Z</time>
      </trkpt>
      <trkpt lat="48.99468" lon="1.98982">
        <ele>78</ele>
        <time>2019-03-02T14:39:35Z</time>
      </trkpt>
      <trkpt lat="48.99475" lon="1.9897">
        <ele>78</ele>
        <time>2019-03-02T14:39:41Z</time>
      </trkpt>
      <trkpt lat="48.99484" lon="1.98964">
        <ele>79</ele>
        <time>2019-03-02T14:39:51Z</time>
      </trkpt>
      <trkpt lat="48.99492" lon="1.98959">
        <ele>79</ele>
        <time>2019-03-02T14:40:00Z</time>
      </trkpt>
      <trkpt lat="48.99501" lon="1.98956">
        <ele>87</ele>
        <time>2019-03-02T14:40:12Z</time>
      </trkpt>
      <trkpt lat="48.9951" lon="1.98961">
        <ele>87</ele>
        <time>2019-03-02T14:40:43Z</time>
      </trkpt>
      <trkpt lat="48.9952" lon="1.9896">
        <ele>88</ele>
        <time>2019-03-02T14:40:53Z</time>
      </trkpt>
      <trkpt lat="48.99529" lon="1.9896">
        <ele>88</ele>
        <time>2019-03-02T14:41:00Z</time>
      </trkpt>
      <trkpt lat="48.99538" lon="1.98966">
        <ele>89</ele>
        <time>2019-03-02T14:41:08Z</time>
      </trkpt>
      <trkpt lat="48.99548" lon="1.98968">
        <ele>89</ele>
        <time>2019-03-02T14:41:14Z</time>
      </trkpt>
      <trkpt lat="48.99557" lon="1.98973">
        <ele>90</ele>
        <time>2019-03-02T14:41:22Z</time>
      </trkpt>
      <trkpt lat="48.99565" lon="1.9898">
        <ele>90</ele>
        <time>2019-03-02T14:41:32Z</time>
      </trkpt>
      <trkpt lat="48.99575" lon="1.98981">
        <ele>91</ele>
        <time>2019-03-02T14:41:41Z</time>
      </trkpt>
      <trkpt lat="48.99584" lon="1.98978">
        <ele>97</ele>
        <time>2019-03-02T14:41:50Z</time>
      </trkpt>
      <trkpt lat="48.99593" lon="1.98979">
        <ele>97</ele>
        <time>2019-03-02T14:41:54Z</time>
      </trkpt>
      <trkpt lat="48.99603" lon="1.98983">
        <ele>97</ele>
        <time>2019-03-02T14:42:03Z</time>
      </trkpt>
      <trkpt lat="48.99612" lon="1.98985">
        <ele>98</ele>
        <time>2019-03-02T14:42:09Z</time>
      </trkpt>
      <trkpt lat="48.99621" lon="1.98989">
        <ele>99</ele>
        <time>2019-03-02T14:42:17Z</time>
      </trkpt>
      <trkpt lat="48.99631" lon="1.98994">
        <ele>100</ele>
        <time>2019-03-02T14:42:25Z</time>
      </trkpt>
      <trkpt lat="48.99639" lon="1.99001">
        <ele>99</ele>
        <time>2019-03-02T14:42:31Z</time>
      </trkpt>
      <trkpt lat="48.99649" lon="1.99006">
        <ele>100</ele>
        <time>2019-03-02T14:42:39Z</time>
      </trkpt>
      <trkpt lat="48.99659" lon="1.99008">
        <ele>101</ele>
        <time>2019-03-02T14:42:46Z</time>
      </trkpt>
      <trkpt lat="48.99668" lon="1.99009">
        <ele>105</ele>
        <time>2019-03-02T14:42:54Z</time>
      </trkpt>
      <trkpt lat="48.99678" lon="1.99009">
        <ele>106</ele>
        <time>2019-03-02T14:43:03Z</time>
      </trkpt>
      <trkpt lat="48.99688" lon="1.99014">
        <ele>107</ele>
        <time>2019-03-02T14:43:13Z</time>
      </trkpt>
      <trkpt lat="48.99698" lon="1.99014">
        <ele>108</ele>
        <time>2019-03-02T14:43:24Z</time>
      </trkpt>
      <trkpt lat="48.99708" lon="1.99021">
        <ele>109</ele>
        <time>2019-03-02T14:43:32Z</time>
      </trkpt>
      <trkpt lat="48.99705" lon="1.99034">
        <ele>109</ele>
        <time>2019-03-02T14:43:43Z</time>
      </trkpt>
      <trkpt lat="48.99706" lon="1.99052">
        <ele>108</ele>
        <time>2019-03-02T14:43:47Z</time>
      </trkpt>
      <trkpt lat="48.99704" lon="1.99068">
        <ele>108</ele>
        <time>2019-03-02T14:43:51Z</time>
      </trkpt>
      <trkpt lat="48.99702" lon="1.99082">
        <ele>107</ele>
        <time>2019-03-02T14:43:57Z</time>
      </trkpt>
      <trkpt lat="48.99698" lon="1.99095">
        <ele>106</ele>
        <time>2019-03-02T14:44:04Z</time>
      </trkpt>
      <trkpt lat="48.99692" lon="1.99106">
        <ele>105</ele>
        <time>2019-03-02T14:44:11Z</time>
      </trkpt>
      <trkpt lat="48.99685" lon="1.99118">
        <ele>105</ele>
        <time>2019-03-02T14:44:19Z</time>
      </trkpt>
      <trkpt lat="48.9968" lon="1.99133">
        <ele>105</ele>
        <time>2019-03-02T14:44:27Z</time>
      </trkpt>
      <trkpt lat="48.99676" lon="1.99146">
        <ele>104</ele>
        <time>2019-03-02T14:44:33Z</time>
      </trkpt>
      <trkpt lat="48.99672" lon="1.99159">
        <ele>103</ele>
        <time>2019-03-02T14:44:40Z</time>
      </trkpt>
      <trkpt lat="48.99666" lon="1.99171">
        <ele>101</ele>
        <time>2019-03-02T14:44:46Z</time>
      </trkpt>
      <trkpt lat="48.99663" lon="1.99186">
        <ele>100</ele>
        <time>2019-03-02T14:44:56Z</time>
      </trkpt>
      <trkpt lat="48.99658" lon="1.99199">
        <ele>100</ele>
        <time>2019-03-02T14:45:03Z</time>
      </trkpt>
      <trkpt lat="48.99654" lon="1.99213">
        <ele>100</ele>
        <time>2019-03-02T14:45:10Z</time>
      </trkpt>
      <trkpt lat="48.9965" lon="1.99227">
        <ele>100</ele>
        <time>2019-03-02T14:45:17Z</time>
      </trkpt>
      <trkpt lat="48.99645" lon="1.99239">
        <ele>101</ele>
        <time>2019-03-02T14:45:24Z</time>
      </trkpt>
      <trkpt lat="48.99638" lon="1.9925">
        <ele>100</ele>
        <time>2019-03-02T14:45:31Z</time>
      </trkpt>
      <trkpt lat="48.9963" lon="1.9926">
        <ele>102</ele>
        <time>2019-03-02T14:45:39Z</time>
      </trkpt>
      <trkpt lat="48.99623" lon="1.99271">
        <ele>101</ele>
        <time>2019-03-02T14:45:46Z</time>
      </trkpt>
      <trkpt lat="48.99619" lon="1.99286">
        <ele>101</ele>
        <time>2019-03-02T14:45:52Z</time>
      </trkpt>
      <trkpt lat="48.99614" lon="1.99298">
        <ele>101</ele>
        <time>2019-03-02T14:46:01Z</time>
      </trkpt>
      <trkpt lat="48.99609" lon="1.99312">
        <ele>101</ele>
        <time>2019-03-02T14:46:08Z</time>
      </trkpt>
      <trkpt lat="48.99602" lon="1.99323">
        <ele>101</ele>
        <time>2019-03-02T14:46:14Z</time>
      </trkpt>
      <trkpt lat="48.99596" lon="1.99335">
        <ele>101</ele>
        <time>2019-03-02T14:46:21Z</time>
      </trkpt>
      <trkpt lat="48.99592" lon="1.99347">
        <ele>102</ele>
        <time>2019-03-02T14:46:28Z</time>
      </trkpt>
      <trkpt lat="48.99587" lon="1.99361">
        <ele>102</ele>
        <time>2019-03-02T14:46:34Z</time>
      </trkpt>
      <trkpt lat="48.9958" lon="1.99372">
        <ele>99</ele>
        <time>2019-03-02T14:46:40Z</time>
      </trkpt>
      <trkpt lat="48.99574" lon="1.99384">
        <ele>99</ele>
        <time>2019-03-02T14:46:47Z</time>
      </trkpt>
      <trkpt lat="48.99567" lon="1.99393">
        <ele>99</ele>
        <time>2019-03-02T14:46:56Z</time>
      </trkpt>
      <trkpt lat="48.9956" lon="1.99402">
        <ele>99</ele>
        <time>2019-03-02T14:47:01Z</time>
      </trkpt>
      <trkpt lat="48.99552" lon="1.99412">
        <ele>99</ele>
        <time>2019-03-02T14:47:08Z</time>
      </trkpt>
      <trkpt lat="48.99547" lon="1.99424">
        <ele>100</ele>
        <time>2019-03-02T14:47:16Z</time>
      </trkpt>
      <trkpt lat="48.9954" lon="1.99436">
        <ele>100</ele>
        <time>2019-03-02T14:47:24Z</time>
      </trkpt>
      <trkpt lat="48.99535" lon="1.99448">
        <ele>100</ele>
        <time>2019-03-02T14:47:32Z</time>
      </trkpt>
      <trkpt lat="48.9953" lon="1.99464">
        <ele>100</ele>
        <time>2019-03-02T14:47:39Z</time>
      </trkpt>
      <trkpt lat="48.99522" lon="1.99475">
        <ele>100</ele>
        <time>2019-03-02T14:47:45Z</time>
      </trkpt>
      <trkpt lat="48.99514" lon="1.99482">
        <ele>100</ele>
        <time>2019-03-02T14:47:51Z</time>
      </trkpt>
      <trkpt lat="48.99504" lon="1.99485">
        <ele>99</ele>
        <time>2019-03-02T14:47:57Z</time>
      </trkpt>
      <trkpt lat="48.99495" lon="1.99486">
        <ele>96</ele>
        <time>2019-03-02T14:48:04Z</time>
      </trkpt>
      <trkpt lat="48.99485" lon="1.99481">
        <ele>96</ele>
        <time>2019-03-02T14:48:11Z</time>
      </trkpt>
      <trkpt lat="48.99476" lon="1.99475">
        <ele>95</ele>
        <time>2019-03-02T14:48:18Z</time>
      </trkpt>
      <trkpt lat="48.99466" lon="1.99474">
        <ele>95</ele>
        <time>2019-03-02T14:48:25Z</time>
      </trkpt>
      <trkpt lat="48.99457" lon="1.99481">
        <ele>95</ele>
        <time>2019-03-02T14:48:29Z</time>
      </trkpt>
      <trkpt lat="48.9945" lon="1.99492">
        <ele>94</ele>
        <time>2019-03-02T14:48:36Z</time>
      </trkpt>
      <trkpt lat="48.99444" lon="1.99504">
        <ele>96</ele>
        <time>2019-03-02T14:48:45Z</time>
      </trkpt>
      <trkpt lat="48.99438" lon="1.99518">
        <ele>96</ele>
        <time>2019-03-02T14:48:51Z</time>
      </trkpt>
      <trkpt lat="48.9943" lon="1.99525">
        <ele>96</ele>
        <time>2019-03-02T14:48:59Z</time>
      </trkpt>
      <trkpt lat="48.99421" lon="1.99531">
        <ele>97</ele>
        <time>2019-03-02T14:49:05Z</time>
      </trkpt>
      <trkpt lat="48.99413" lon="1.99538">
        <ele>93</ele>
        <time>2019-03-02T14:49:11Z</time>
      </trkpt>
      <trkpt lat="48.99405" lon="1.99548">
        <ele>93</ele>
        <time>2019-03-02T14:49:17Z</time>
      </trkpt>
      <trkpt lat="48.994" lon="1.99559">
        <ele>94</ele>
        <time>2019-03-02T14:49:24Z</time>
      </trkpt>
      <trkpt lat="48.99392" lon="1.99568">
        <ele>94</ele>
        <time>2019-03-02T14:49:32Z</time>
      </trkpt>
      <trkpt lat="48.99384" lon="1.99578">
        <ele>93</ele>
        <time>2019-03-02T14:49:40Z</time>
      </trkpt>
      <trkpt lat="48.99377" lon="1.99588">
        <ele>97</ele>
        <time>2019-03-02T14:49:48Z</time>
      </trkpt>
      <trkpt lat="48.99368" lon="1.9959">
        <ele>96</ele>
        <time>2019-03-02T14:49:56Z</time>
      </trkpt>
      <trkpt lat="48.99357" lon="1.99591">
        <ele>95</ele>
        <time>2019-03-02T14:50:03Z</time>
      </trkpt>
      <trkpt lat="48.99347" lon="1.99593">
        <ele>94</ele>
        <time>2019-03-02T14:50:11Z</time>
      </trkpt>
      <trkpt lat="48.99338" lon="1.99597">
        <ele>94</ele>
        <time>2019-03-02T14:50:18Z</time>
      </trkpt>
      <trkpt lat="48.99328" lon="1.99606">
        <ele>91</ele>
        <time>2019-03-02T14:50:25Z</time>
      </trkpt>
      <trkpt lat="48.9932" lon="1.99616">
        <ele>91</ele>
        <time>2019-03-02T14:50:31Z</time>
      </trkpt>
      <trkpt lat="48.99315" lon="1.99627">
        <ele>92</ele>
        <time>2019-03-02T14:50:37Z</time>
      </trkpt>
      <trkpt lat="48.99307" lon="1.99637">
        <ele>92</ele>
        <time>2019-03-02T14:50:46Z</time>
      </trkpt>
      <trkpt lat="48.99299" lon="1.99646">
        <ele>92</ele>
        <time>2019-03-02T14:50:53Z</time>
      </trkpt>
      <trkpt lat="48.9929" lon="1.99652">
        <ele>92</ele>
        <time>2019-03-02T14:51:01Z</time>
      </trkpt>
      <trkpt lat="48.9928" lon="1.99655">
        <ele>92</ele>
        <time>2019-03-02T14:51:11Z</time>
      </trkpt>
      <trkpt lat="48.99271" lon="1.99662">
        <ele>92</ele>
        <time>2019-03-02T14:51:21Z</time>
      </trkpt>
      <trkpt lat="48.99264" lon="1.99669">
        <ele>94</ele>
        <time>2019-03-02T14:51:27Z</time>
      </trkpt>
      <trkpt lat="48.99255" lon="1.99677">
        <ele>94</ele>
        <time>2019-03-02T14:51:35Z</time>
      </trkpt>
      <trkpt lat="48.99246" lon="1.99682">
        <ele>93</ele>
        <time>2019-03-02T14:51:43Z</time>
      </trkpt>
      <trkpt lat="48.99235" lon="1.99677">
        <ele>93</ele>
        <time>2019-03-02T14:51:50Z</time>
      </trkpt>
      <trkpt lat="48.99227" lon="1.99667">
        <ele>93</ele>
        <time>2019-03-02T14:51:57Z</time>
      </trkpt>
      <trkpt lat="48.99221" lon="1.99656">
        <ele>89</ele>
        <time>2019-03-02T14:52:05Z</time>
      </trkpt>
      <trkpt lat="48.99211" lon="1.99654">
        <ele>89</ele>
        <time>2019-03-02T14:52:12Z</time>
      </trkpt>
      <trkpt lat="48.99203" lon="1.99661">
        <ele>89</ele>
        <time>2019-03-02T14:52:18Z</time>
      </trkpt>
      <trkpt lat="48.99196" lon="1.9967">
        <ele>92</ele>
        <time>2019-03-02T14:52:26Z</time>
      </trkpt>
      <trkpt lat="48.99192" lon="1.99684">
        <ele>92</ele>
        <time>2019-03-02T14:52:33Z</time>
      </trkpt>
      <trkpt lat="48.99183" lon="1.99694">
        <ele>93</ele>
        <time>2019-03-02T14:52:41Z</time>
      </trkpt>
      <trkpt lat="48.99176" lon="1.99702">
        <ele>93</ele>
        <time>2019-03-02T14:52:48Z</time>
      </trkpt>
      <trkpt lat="48.99169" lon="1.99712">
        <ele>93</ele>
        <time>2019-03-02T14:52:55Z</time>
      </trkpt>
      <trkpt lat="48.9916" lon="1.99717">
        <ele>93</ele>
        <time>2019-03-02T14:53:02Z</time>
      </trkpt>
      <trkpt lat="48.99151" lon="1.99721">
        <ele>93</ele>
        <time>2019-03-02T14:53:08Z</time>
      </trkpt>
      <trkpt lat="48.99142" lon="1.99726">
        <ele>93</ele>
        <time>2019-03-02T14:53:14Z</time>
      </trkpt>
      <trkpt lat="48.99133" lon="1.99734">
        <ele>93</ele>
        <time>2019-03-02T14:53:21Z</time>
      </trkpt>
      <trkpt lat="48.99133" lon="1.99749">
        <ele>94</ele>
        <time>2019-03-02T14:53:31Z</time>
      </trkpt>
      <trkpt lat="48.99134" lon="1.99764">
        <ele>100</ele>
        <time>2019-03-02T14:53:40Z</time>
      </trkpt>
      <trkpt lat="48.99128" lon="1.99775">
        <ele>101</ele>
        <time>2019-03-02T14:53:48Z</time>
      </trkpt>
      <trkpt lat="48.9912" lon="1.99784">
        <ele>101</ele>
        <time>2019-03-02T14:53:58Z</time>
      </trkpt>
      <trkpt lat="48.99114" lon="1.99795">
        <ele>102</ele>
        <time>2019-03-02T14:54:09Z</time>
      </trkpt>
      <trkpt lat="48.99109" lon="1.99807">
        <ele>103</ele>
        <time>2019-03-02T14:54:17Z</time>
      </trkpt>
      <trkpt lat="48.99104" lon="1.99819">
        <ele>104</ele>
        <time>2019-03-02T14:54:27Z</time>
      </trkpt>
      <trkpt lat="48.99099" lon="1.99831">
        <ele>105</ele>
        <time>2019-03-02T14:54:36Z</time>
      </trkpt>
      <trkpt lat="48.99091" lon="1.99842">
        <ele>111</ele>
        <time>2019-03-02T14:54:47Z</time>
      </trkpt>
      <trkpt lat="48.99084" lon="1.99852">
        <ele>113</ele>
        <time>2019-03-02T14:54:54Z</time>
      </trkpt>
      <trkpt lat="48.99078" lon="1.99862">
        <ele>110</ele>
        <time>2019-03-02T14:55:04Z</time>
      </trkpt>
      <trkpt lat="48.9907" lon="1.99869">
        <ele>111</ele>
        <time>2019-03-02T14:55:10Z</time>
      </trkpt>
      <trkpt lat="48.99061" lon="1.99877">
        <ele>111</ele>
        <time>2019-03-02T14:55:18Z</time>
      </trkpt>
      <trkpt lat="48.99055" lon="1.99887">
        <ele>112</ele>
        <time>2019-03-02T14:55:28Z</time>
      </trkpt>
      <trkpt lat="48.99048" lon="1.99899">
        <ele>112</ele>
        <time>2019-03-02T14:55:40Z</time>
      </trkpt>
      <trkpt lat="48.99042" lon="1.99911">
        <ele>112</ele>
        <time>2019-03-02T14:55:48Z</time>
      </trkpt>
      <trkpt lat="48.99035" lon="1.99922">
        <ele>118</ele>
        <time>2019-03-02T14:55:56Z</time>
      </trkpt>
      <trkpt lat="48.99028" lon="1.9993">
        <ele>118</ele>
        <time>2019-03-02T14:56:04Z</time>
      </trkpt>
      <trkpt lat="48.99017" lon="1.99935">
        <ele>117</ele>
        <time>2019-03-02T14:56:12Z</time>
      </trkpt>
      <trkpt lat="48.99011" lon="1.99947">
        <ele>117</ele>
        <time>2019-03-02T14:56:17Z</time>
      </trkpt>
      <trkpt lat="48.99004" lon="1.99958">
        <ele>118</ele>
        <time>2019-03-02T14:56:24Z</time>
      </trkpt>
      <trkpt lat="48.98999" lon="1.99971">
        <ele>108</ele>
        <time>2019-03-02T14:56:31Z</time>
      </trkpt>
      <trkpt lat="48.98994" lon="1.99984">
        <ele>110</ele>
        <time>2019-03-02T14:56:39Z</time>
      </trkpt>
      <trkpt lat="48.9899" lon="1.99999">
        <ele>112</ele>
        <time>2019-03-02T14:56:46Z</time>
      </trkpt>
      <trkpt lat="48.98989" lon="2.00015">
        <ele>112</ele>
        <time>2019-03-02T14:56:54Z</time>
      </trkpt>
      <trkpt lat="48.98985" lon="2.00027">
        <ele>110</ele>
        <time>2019-03-02T14:57:00Z</time>
      </trkpt>
      <trkpt lat="48.98981" lon="2.00042">
        <ele>109</ele>
        <time>2019-03-02T14:57:36Z</time>
      </trkpt>
      <trkpt lat="48.98981" lon="2.00057">
        <ele>110</ele>
        <time>2019-03-02T14:57:44Z</time>
      </trkpt>
      <trkpt lat="48.98981" lon="2.00072">
        <ele>111</ele>
        <time>2019-03-02T14:57:53Z</time>
      </trkpt>
      <trkpt lat="48.98981" lon="2.00088">
        <ele>112</ele>
        <time>2019-03-02T14:58:01Z</time>
      </trkpt>
      <trkpt lat="48.98979" lon="2.00102">
        <ele>111</ele>
        <time>2019-03-02T14:58:07Z</time>
      </trkpt>
      <trkpt lat="48.98979" lon="2.00116">
        <ele>110</ele>
        <time>2019-03-02T14:58:14Z</time>
      </trkpt>
      <trkpt lat="48.9898" lon="2.00132">
        <ele>110</ele>
        <time>2019-03-02T14:58:22Z</time>
      </trkpt>
      <trkpt lat="48.98981" lon="2.00146">
        <ele>111</ele>
        <time>2019-03-02T14:58:33Z</time>
      </trkpt>
      <trkpt lat="48.98981" lon="2.00164">
        <ele>112</ele>
        <time>2019-03-02T14:58:41Z</time>
      </trkpt>
      <trkpt lat="48.9898" lon="2.0018">
        <ele>110</ele>
        <time>2019-03-02T14:58:48Z</time>
      </trkpt>
      <trkpt lat="48.9898" lon="2.00193">
        <ele>109</ele>
        <time>2019-03-02T14:58:55Z</time>
      </trkpt>
      <trkpt lat="48.98981" lon="2.00209">
        <ele>109</ele>
        <time>2019-03-02T14:59:05Z</time>
      </trkpt>
      <trkpt lat="48.98982" lon="2.00223">
        <ele>108</ele>
        <time>2019-03-02T14:59:12Z</time>
      </trkpt>
      <trkpt lat="48.98981" lon="2.00238">
        <ele>109</ele>
        <time>2019-03-02T14:59:19Z</time>
      </trkpt>
      <trkpt lat="48.98983" lon="2.00255">
        <ele>108</ele>
        <time>2019-03-02T14:59:27Z</time>
      </trkpt>
      <trkpt lat="48.98984" lon="2.0027">
        <ele>107</ele>
        <time>2019-03-02T14:59:33Z</time>
      </trkpt>
      <trkpt lat="48.98988" lon="2.00284">
        <ele>106</ele>
        <time>2019-03-02T14:59:41Z</time>
      </trkpt>
      <trkpt lat="48.98991" lon="2.00297">
        <ele>105</ele>
        <time>2019-03-02T14:59:49Z</time>
      </trkpt>
      <trkpt lat="48.98994" lon="2.00312">
        <ele>105</ele>
        <time>2019-03-02T14:59:56Z</time>
      </trkpt>
      <trkpt lat="48.98992" lon="2.00326">
        <ele>105</ele>
        <time>2019-03-02T15:00:19Z</time>
      </trkpt>
      <trkpt lat="48.98991" lon="2.00341">
        <ele>104</ele>
        <time>2019-03-02T15:00:28Z</time>
      </trkpt>
      <trkpt lat="48.98989" lon="2.00355">
        <ele>103</ele>
        <time>2019-03-02T15:00:35Z</time>
      </trkpt>
      <trkpt lat="48.98988" lon="2.0037">
        <ele>103</ele>
        <time>2019-03-02T15:00:43Z</time>
      </trkpt>
      <trkpt lat="48.98987" lon="2.00384">
        <ele>102</ele>
        <time>2019-03-02T15:00:50Z</time>
      </trkpt>
      <trkpt lat="48.98987" lon="2.00399">
        <ele>102</ele>
        <time>2019-03-02T15:00:57Z</time>
      </trkpt>
      <trkpt lat="48.98989" lon="2.00414">
        <ele>103</ele>
        <time>2019-03-02T15:01:05Z</time>
      </trkpt>
      <trkpt lat="48.98991" lon="2.00427">
        <ele>101</ele>
        <time>2019-03-02T15:01:12Z</time>
      </trkpt>
      <trkpt lat="48.98994" lon="2.0044">
        <ele>100</ele>
        <time>2019-03-02T15:01:19Z</time>
      </trkpt>
      <trkpt lat="48.98996" lon="2.00456">
        <ele>99</ele>
        <time>2019-03-02T15:01:26Z</time>
      </trkpt>
      <trkpt lat="48.98998" lon="2.00472">
        <ele>99</ele>
        <time>2019-03-02T15:01:34Z</time>
      </trkpt>
      <trkpt lat="48.99" lon="2.00485">
        <ele>99</ele>
        <time>2019-03-02T15:01:41Z</time>
      </trkpt>
      <trkpt lat="48.99" lon="2.005">
        <ele>99</ele>
        <time>2019-03-02T15:01:49Z</time>
      </trkpt>
      <trkpt lat="48.99006" lon="2.00511">
        <ele>100</ele>
        <time>2019-03-02T15:02:06Z</time>
      </trkpt>
      <trkpt lat="48.99008" lon="2.00525">
        <ele>100</ele>
        <time>2019-03-02T15:02:12Z</time>
      </trkpt>
      <trkpt lat="48.99005" lon="2.00539">
        <ele>100</ele>
        <time>2019-03-02T15:02:20Z</time>
      </trkpt>
      <trkpt lat="48.99002" lon="2.00553">
        <ele>100</ele>
        <time>2019-03-02T15:02:28Z</time>
      </trkpt>
      <trkpt lat="48.98996" lon="2.00565">
        <ele>98</ele>
        <time>2019-03-02T15:02:34Z</time>
      </trkpt>
      <trkpt lat="48.9899" lon="2.00577">
        <ele>98</ele>
        <time>2019-03-02T15:02:40Z</time>
      </trkpt>
      <trkpt lat="48.9898" lon="2.00583">
        <ele>97</ele>
        <time>2019-03-02T15:02:48Z</time>
      </trkpt>
      <trkpt lat="48.98972" lon="2.00589">
        <ele>99</ele>
        <time>2019-03-02T15:02:55Z</time>
      </trkpt>
      <trkpt lat="48.98964" lon="2.00598">
        <ele>99</ele>
        <time>2019-03-02T15:03:03Z</time>
      </trkpt>
      <trkpt lat="48.98956" lon="2.00604">
        <ele>99</ele>
        <time>2019-03-02T15:03:10Z</time>
      </trkpt>
      <trkpt lat="48.98946" lon="2.00611">
        <ele>99</ele>
        <time>2019-03-02T15:03:15Z</time>
      </trkpt>
      <trkpt lat="48.98938" lon="2.00618">
        <ele>99</ele>
        <time>2019-03-02T15:03:22Z</time>
      </trkpt>
      <trkpt lat="48.98929" lon="2.00622">
        <ele>99</ele>
        <time>2019-03-02T15:03:34Z</time>
      </trkpt>
      <trkpt lat="48.9892" lon="2.00627">
        <ele>99</ele>
        <time>2019-03-02T15:03:41Z</time>
      </trkpt>
      <trkpt lat="48.98913" lon="2.00638">
        <ele>97</ele>
        <time>2019-03-02T15:03:52Z</time>
      </trkpt>
      <trkpt lat="48.98906" lon="2.00648">
        <ele>97</ele>
        <time>2019-03-02T15:03:59Z</time>
      </trkpt>
      <trkpt lat="48.98898" lon="2.00657">
        <ele>97</ele>
        <time>2019-03-02T15:04:05Z</time>
      </trkpt>
      <trkpt lat="48.98891" lon="2.00666">
        <ele>97</ele>
        <time>2019-03-02T15:04:12Z</time>
      </trkpt>
      <trkpt lat="48.98885" lon="2.00677">
        <ele>101</ele>
        <time>2019-03-02T15:04:17Z</time>
      </trkpt>
      <trkpt lat="48.98879" lon="2.00688">
        <ele>100</ele>
        <time>2019-03-02T15:04:24Z</time>
      </trkpt>
      <trkpt lat="48.98871" lon="2.00695">
        <ele>100</ele>
        <time>2019-03-02T15:04:31Z</time>
      </trkpt>
      <trkpt lat="48.98863" lon="2.00701">
        <ele>100</ele>
        <time>2019-03-02T15:04:38Z</time>
      </trkpt>
      <trkpt lat="48.98855" lon="2.0071">
        <ele>100</ele>
        <time>2019-03-02T15:04:46Z</time>
      </trkpt>
      <trkpt lat="48.98846" lon="2.00717">
        <ele>100</ele>
        <time>2019-03-02T15:04:53Z</time>
      </trkpt>
      <trkpt lat="48.98839" lon="2.00725">
        <ele>101</ele>
        <time>2019-03-02T15:04:59Z</time>
      </trkpt>
      <trkpt lat="48.9883" lon="2.00732">
        <ele>97</ele>
        <time>2019-03-02T15:05:07Z</time>
      </trkpt>
      <trkpt lat="48.98821" lon="2.0074">
        <ele>98</ele>
        <time>2019-03-02T15:05:14Z</time>
      </trkpt>
      <trkpt lat="48.98811" lon="2.00747">
        <ele>96</ele>
        <time>2019-03-02T15:05:21Z</time>
      </trkpt>
      <trkpt lat="48.98805" lon="2.00757">
        <ele>100</ele>
        <time>2019-03-02T15:05:28Z</time>
      </trkpt>
      <trkpt lat="48.98797" lon="2.00766">
        <ele>100</ele>
        <time>2019-03-02T15:05:34Z</time>
      </trkpt>
      <trkpt lat="48.98789" lon="2.00776">
        <ele>99</ele>
        <time>2019-03-02T15:05:42Z</time>
      </trkpt>
      <trkpt lat="48.9878" lon="2.00784">
        <ele>99</ele>
        <time>2019-03-02T15:05:51Z</time>
      </trkpt>
      <trkpt lat="48.98772" lon="2.00791">
        <ele>99</ele>
        <time>2019-03-02T15:05:58Z</time>
      </trkpt>
      <trkpt lat="48.98763" lon="2.00798">
        <ele>99</ele>
        <time>2019-03-02T15:06:05Z</time>
      </trkpt>
      <trkpt lat="48.98755" lon="2.00809">
        <ele>99</ele>
        <time>2019-03-02T15:06:12Z</time>
      </trkpt>
      <trkpt lat="48.98749" lon="2.00821">
        <ele>97</ele>
        <time>2019-03-02T15:06:17Z</time>
      </trkpt>
      <trkpt lat="48.98742" lon="2.0083">
        <ele>98</ele>
        <time>2019-03-02T15:06:23Z</time>
      </trkpt>
      <trkpt lat="48.98735" lon="2.00842">
        <ele>99</ele>
        <time>2019-03-02T15:06:30Z</time>
      </trkpt>
      <trkpt lat="48.98729" lon="2.00855">
        <ele>98</ele>
        <time>2019-03-02T15:06:36Z</time>
      </trkpt>
      <trkpt lat="48.98724" lon="2.00868">
        <ele>98</ele>
        <time>2019-03-02T15:06:44Z</time>
      </trkpt>
      <trkpt lat="48.98718" lon="2.00879">
        <ele>98</ele>
        <time>2019-03-02T15:06:51Z</time>
      </trkpt>
      <trkpt lat="48.98711" lon="2.0089">
        <ele>98</ele>
        <time>2019-03-02T15:06:58Z</time>
      </trkpt>
      <trkpt lat="48.98705" lon="2.009">
        <ele>98</ele>
        <time>2019-03-02T15:07:04Z</time>
      </trkpt>
      <trkpt lat="48.98697" lon="2.00909">
        <ele>98</ele>
        <time>2019-03-02T15:07:11Z</time>
      </trkpt>
      <trkpt lat="48.98689" lon="2.00914">
        <ele>98</ele>
        <time>2019-03-02T15:07:17Z</time>
      </trkpt>
      <trkpt lat="48.9868" lon="2.0092">
        <ele>98</ele>
        <time>2019-03-02T15:07:24Z</time>
      </trkpt>
      <trkpt lat="48.98673" lon="2.00929">
        <ele>98</ele>
        <time>2019-03-02T15:07:30Z</time>
      </trkpt>
      <trkpt lat="48.98666" lon="2.00937">
        <ele>98</ele>
        <time>2019-03-02T15:07:37Z</time>
      </trkpt>
      <trkpt lat="48.98659" lon="2.00948">
        <ele>99</ele>
        <time>2019-03-02T15:07:44Z</time>
      </trkpt>
      <trkpt lat="48.9865" lon="2.00953">
        <ele>99</ele>
        <time>2019-03-02T15:07:52Z</time>
      </trkpt>
      <trkpt lat="48.98641" lon="2.00956">
        <ele>99</ele>
        <time>2019-03-02T15:07:59Z</time>
      </trkpt>
      <trkpt lat="48.98632" lon="2.00956">
        <ele>100</ele>
        <time>2019-03-02T15:08:06Z</time>
      </trkpt>
      <trkpt lat="48.98623" lon="2.00955">
        <ele>100</ele>
        <time>2019-03-02T15:08:13Z</time>
      </trkpt>
      <trkpt lat="48.98613" lon="2.00951">
        <ele>100</ele>
        <time>2019-03-02T15:08:20Z</time>
      </trkpt>
      <trkpt lat="48.98603" lon="2.00947">
        <ele>100</ele>
        <time>2019-03-02T15:08:27Z</time>
      </trkpt>
      <trkpt lat="48.98594" lon="2.00943">
        <ele>100</ele>
        <time>2019-03-02T15:08:33Z</time>
      </trkpt>
      <trkpt lat="48.98585" lon="2.0094">
        <ele>99</ele>
        <time>2019-03-02T15:08:40Z</time>
      </trkpt>
      <trkpt lat="48.98576" lon="2.00936">
        <ele>102</ele>
        <time>2019-03-02T15:08:46Z</time>
      </trkpt>
      <trkpt lat="48.98566" lon="2.00935">
        <ele>103</ele>
        <time>2019-03-02T15:08:53Z</time>
      </trkpt>
      <trkpt lat="48.98556" lon="2.00933">
        <ele>104</ele>
        <time>2019-03-02T15:08:59Z</time>
      </trkpt>
      <trkpt lat="48.98547" lon="2.00933">
        <ele>104</ele>
        <time>2019-03-02T15:09:06Z</time>
      </trkpt>
      <trkpt lat="48.98537" lon="2.00934">
        <ele>105</ele>
        <time>2019-03-02T15:09:16Z</time>
      </trkpt>
      <trkpt lat="48.98528" lon="2.00935">
        <ele>106</ele>
        <time>2019-03-02T15:09:22Z</time>
      </trkpt>
      <trkpt lat="48.98518" lon="2.00938">
        <ele>106</ele>
        <time>2019-03-02T15:09:29Z</time>
      </trkpt>
      <trkpt lat="48.98508" lon="2.00941">
        <ele>106</ele>
        <time>2019-03-02T15:09:36Z</time>
      </trkpt>
      <trkpt lat="48.98498" lon="2.0095">
        <ele>107</ele>
        <time>2019-03-02T15:09:44Z</time>
      </trkpt>
      <trkpt lat="48.9849" lon="2.00959">
        <ele>108</ele>
        <time>2019-03-02T15:09:49Z</time>
      </trkpt>
      <trkpt lat="48.98482" lon="2.00968">
        <ele>108</ele>
        <time>2019-03-02T15:09:56Z</time>
      </trkpt>
      <trkpt lat="48.98474" lon="2.00974">
        <ele>108</ele>
        <time>2019-03-02T15:10:02Z</time>
      </trkpt>
      <trkpt lat="48.98472" lon="2.00988">
        <ele>108</ele>
        <time>2019-03-02T15:10:13Z</time>
      </trkpt>
      <trkpt lat="48.9847" lon="2.01002">
        <ele>111</ele>
        <time>2019-03-02T15:10:22Z</time>
      </trkpt>
      <trkpt lat="48.98469" lon="2.01016">
        <ele>111</ele>
        <time>2019-03-02T15:10:28Z</time>
      </trkpt>
      <trkpt lat="48.98469" lon="2.01031">
        <ele>111</ele>
        <time>2019-03-02T15:10:35Z</time>
      </trkpt>
      <trkpt lat="48.98468" lon="2.01045">
        <ele>112</ele>
        <time>2019-03-02T15:10:41Z</time>
      </trkpt>
      <trkpt lat="48.98469" lon="2.0106">
        <ele>112</ele>
        <time>2019-03-02T15:10:48Z</time>
      </trkpt>
      <trkpt lat="48.98472" lon="2.01073">
        <ele>113</ele>
        <time>2019-03-02T15:10:56Z</time>
      </trkpt>
      <trkpt lat="48.98474" lon="2.01087">
        <ele>116</ele>
        <time>2019-03-02T15:11:01Z</time>
      </trkpt>
      <trkpt lat="48.98474" lon="2.01101">
        <ele>116</ele>
        <time>2019-03-02T15:11:08Z</time>
      </trkpt>
      <trkpt lat="48.98475" lon="2.01117">
        <ele>117</ele>
        <time>2019-03-02T15:11:17Z</time>
      </trkpt>
      <trkpt lat="48.98476" lon="2.01133">
        <ele>117</ele>
        <time>2019-03-02T15:11:25Z</time>
      </trkpt>
      <trkpt lat="48.98478" lon="2.01146">
        <ele>118</ele>
        <time>2019-03-02T15:11:30Z</time>
      </trkpt>
      <trkpt lat="48.98474" lon="2.01159">
        <ele>118</ele>
        <time>2019-03-02T15:11:51Z</time>
      </trkpt>
      <trkpt lat="48.98464" lon="2.0116">
        <ele>118</ele>
        <time>2019-03-02T15:12:23Z</time>
      </trkpt>
      <trkpt lat="48.98454" lon="2.0116">
        <ele>117</ele>
        <time>2019-03-02T15:12:29Z</time>
      </trkpt>
      <trkpt lat="48.98444" lon="2.01163">
        <ele>117</ele>
        <time>2019-03-02T15:12:36Z</time>
      </trkpt>
      <trkpt lat="48.98434" lon="2.01167">
        <ele>119</ele>
        <time>2019-03-02T15:12:44Z</time>
      </trkpt>
      <trkpt lat="48.98425" lon="2.01172">
        <ele>118</ele>
        <time>2019-03-02T15:12:52Z</time>
      </trkpt>
      <trkpt lat="48.98417" lon="2.01181">
        <ele>119</ele>
        <time>2019-03-02T15:12:58Z</time>
      </trkpt>
      <trkpt lat="48.98409" lon="2.01189">
        <ele>116</ele>
        <time>2019-03-02T15:13:05Z</time>
      </trkpt>
      <trkpt lat="48.98402" lon="2.01201">
        <ele>117</ele>
        <time>2019-03-02T15:13:13Z</time>
      </trkpt>
      <trkpt lat="48.98395" lon="2.01212">
        <ele>117</ele>
        <time>2019-03-02T15:13:22Z</time>
      </trkpt>
      <trkpt lat="48.98389" lon="2.01222">
        <ele>117</ele>
        <time>2019-03-02T15:13:31Z</time>
      </trkpt>
      <trkpt lat="48.98382" lon="2.01234">
        <ele>117</ele>
        <time>2019-03-02T15:13:40Z</time>
      </trkpt>
      <trkpt lat="48.98378" lon="2.01248">
        <ele>117</ele>
        <time>2019-03-02T15:13:46Z</time>
      </trkpt>
      <trkpt lat="48.98375" lon="2.01262">
        <ele>121</ele>
        <time>2019-03-02T15:13:54Z</time>
      </trkpt>
      <trkpt lat="48.98372" lon="2.0128">
        <ele>121</ele>
        <time>2019-03-02T15:13:59Z</time>
      </trkpt>
      <trkpt lat="48.98371" lon="2.01296">
        <ele>122</ele>
        <time>2019-03-02T15:14:06Z</time>
      </trkpt>
      <trkpt lat="48.98368" lon="2.0131">
        <ele>122</ele>
        <time>2019-03-02T15:14:12Z</time>
      </trkpt>
      <trkpt lat="48.98365" lon="2.01325">
        <ele>122</ele>
        <time>2019-03-02T15:14:19Z</time>
      </trkpt>
      <trkpt lat="48.98361" lon="2.01339">
        <ele>125</ele>
        <time>2019-03-02T15:14:26Z</time>
      </trkpt>
      <trkpt lat="48.98357" lon="2.01351">
        <ele>125</ele>
        <time>2019-03-02T15:14:33Z</time>
      </trkpt>
      <trkpt lat="48.98352" lon="2.01364">
        <ele>126</ele>
        <time>2019-03-02T15:14:41Z</time>
      </trkpt>
      <trkpt lat="48.98346" lon="2.01376">
        <ele>126</ele>
        <time>2019-03-02T15:14:48Z</time>
      </trkpt>
      <trkpt lat="48.98341" lon="2.01388">
        <ele>126</ele>
        <time>2019-03-02T15:14:56Z</time>
      </trkpt>
      <trkpt lat="48.98338" lon="2.01401">
        <ele>125</ele>
        <time>2019-03-02T15:15:01Z</time>
      </trkpt>
      <trkpt lat="48.98334" lon="2.01415">
        <ele>123</ele>
        <time>2019-03-02T15:15:08Z</time>
      </trkpt>
      <trkpt lat="48.98328" lon="2.01427">
        <ele>121</ele>
        <time>2019-03-02T15:15:15Z</time>
      </trkpt>
      <trkpt lat="48.98323" lon="2.01438">
        <ele>120</ele>
        <time>2019-03-02T15:15:38Z</time>
      </trkpt>
      <trkpt lat="48.98319" lon="2.01451">
        <ele>120</ele>
        <time>2019-03-02T15:15:44Z</time>
      </trkpt>
      <trkpt lat="48.98316" lon="2.01465">
        <ele>120</ele>
        <time>2019-03-02T15:15:48Z</time>
      </trkpt>
      <trkpt lat="48.98312" lon="2.01477">
        <ele>120</ele>
        <time>2019-03-02T15:15:55Z</time>
      </trkpt>
      <trkpt lat="48.98307" lon="2.0149">
        <ele>120</ele>
        <time>2019-03-02T15:16:05Z</time>
      </trkpt>
      <trkpt lat="48.98305" lon="2.01503">
        <ele>121</ele>
        <time>2019-03-02T15:16:13Z</time>
      </trkpt>
      <trkpt lat="48.98302" lon="2.01517">
        <ele>121</ele>
        <time>2019-03-02T15:16:19Z</time>
      </trkpt>
      <trkpt lat="48.98299" lon="2.01531">
        <ele>120</ele>
        <time>2019-03-02T15:16:28Z</time>
      </trkpt>
      <trkpt lat="48.98294" lon="2.01543">
        <ele>120</ele>
        <time>2019-03-02T15:16:33Z</time>
      </trkpt>
      <trkpt lat="48.98289" lon="2.01556">
        <ele>119</ele>
        <time>2019-03-02T15:16:40Z</time>
      </trkpt>
      <trkpt lat="48.98285" lon="2.01568">
        <ele>119</ele>
        <time>2019-03-02T15:16:46Z</time>
      </trkpt>
      <trkpt lat="48.98282" lon="2.01582">
        <ele>118</ele>
        <time>2019-03-02T15:16:54Z</time>
      </trkpt>
      <trkpt lat="48.98277" lon="2.01593">
        <ele>118</ele>
        <time>2019-03-02T15:16:59Z</time>
      </trkpt>
      <trkpt lat="48.98273" lon="2.01607">
        <ele>118</ele>
        <time>2019-03-02T15:17:05Z</time>
      </trkpt>
      <trkpt lat="48.98269" lon="2.01622">
        <ele>119</ele>
        <time>2019-03-02T15:17:12Z</time>
      </trkpt>
      <trkpt lat="48.98263" lon="2.01634">
        <ele>118</ele>
        <time>2019-03-02T15:17:20Z</time>
      </trkpt>
      <trkpt lat="48.98256" lon="2.01645">
        <ele>117</ele>
        <time>2019-03-02T15:17:27Z</time>
      </trkpt>
      <trkpt lat="48.9825" lon="2.01656">
        <ele>111</ele>
        <time>2019-03-02T15:17:32Z</time>
      </trkpt>
      <trkpt lat="48.98242" lon="2.01668">
        <ele>112</ele>
        <time>2019-03-02T15:17:38Z</time>
      </trkpt>
      <trkpt lat="48.98234" lon="2.01674">
        <ele>110</ele>
        <time>2019-03-02T15:17:43Z</time>
      </trkpt>
      <trkpt lat="48.98227" lon="2.01684">
        <ele>109</ele>
        <time>2019-03-02T15:17:50Z</time>
      </trkpt>
      <trkpt lat="48.98218" lon="2.01694">
        <ele>109</ele>
        <time>2019-03-02T15:17:55Z</time>
      </trkpt>
      <trkpt lat="48.98211" lon="2.01702">
        <ele>108</ele>
        <time>2019-03-02T15:18:00Z</time>
      </trkpt>
      <trkpt lat="48.98204" lon="2.01711">
        <ele>108</ele>
        <time>2019-03-02T15:18:06Z</time>
      </trkpt>
      <trkpt lat="48.98194" lon="2.0171">
        <ele>107</ele>
        <time>2019-03-02T15:18:29Z</time>
      </trkpt>
      <trkpt lat="48.98188" lon="2.017">
        <ele>106</ele>
        <time>2019-03-02T15:18:38Z</time>
      </trkpt>
      <trkpt lat="48.9818" lon="2.0169">
        <ele>105</ele>
        <time>2019-03-02T15:18:51Z</time>
      </trkpt>
      <trkpt lat="48.98175" lon="2.01677">
        <ele>104</ele>
        <time>2019-03-02T15:18:57Z</time>
      </trkpt>
      <trkpt lat="48.98169" lon="2.01667">
        <ele>101</ele>
        <time>2019-03-02T15:19:05Z</time>
      </trkpt>
      <trkpt lat="48.98162" lon="2.01656">
        <ele>99</ele>
        <time>2019-03-02T15:19:14Z</time>
      </trkpt>
      <trkpt lat="48.98155" lon="2.01646">
        <ele>98</ele>
        <time>2019-03-02T15:19:22Z</time>
      </trkpt>
      <trkpt lat="48.98149" lon="2.01634">
        <ele>97</ele>
        <time>2019-03-02T15:19:30Z</time>
      </trkpt>
      <trkpt lat="48.98143" lon="2.0162">
        <ele>97</ele>
        <time>2019-03-02T15:19:36Z</time>
      </trkpt>
      <trkpt lat="48.9814" lon="2.01607">
        <ele>97</ele>
        <time>2019-03-02T15:19:44Z</time>
      </trkpt>
      <trkpt lat="48.98139" lon="2.01591">
        <ele>97</ele>
        <time>2019-03-02T15:19:52Z</time>
      </trkpt>
      <trkpt lat="48.98137" lon="2.01576">
        <ele>96</ele>
        <time>2019-03-02T15:19:59Z</time>
      </trkpt>
      <trkpt lat="48.98133" lon="2.01562">
        <ele>96</ele>
        <time>2019-03-02T15:20:05Z</time>
      </trkpt>
      <trkpt lat="48.98126" lon="2.01551">
        <ele>96</ele>
        <time>2019-03-02T15:20:14Z</time>
      </trkpt>
      <trkpt lat="48.9812" lon="2.0154">
        <ele>95</ele>
        <time>2019-03-02T15:20:21Z</time>
      </trkpt>
      <trkpt lat="48.98119" lon="2.01527">
        <ele>95</ele>
        <time>2019-03-02T15:20:28Z</time>
      </trkpt>
      <trkpt lat="48.98116" lon="2.01512">
        <ele>95</ele>
        <time>2019-03-02T15:20:36Z</time>
      </trkpt>
      <trkpt lat="48.9811" lon="2.01502">
        <ele>94</ele>
        <time>2019-03-02T15:20:44Z</time>
      </trkpt>
      <trkpt lat="48.98103" lon="2.01492">
        <ele>93</ele>
        <time>2019-03-02T15:20:51Z</time>
      </trkpt>
      <trkpt lat="48.98094" lon="2.01485">
        <ele>93</ele>
        <time>2019-03-02T15:21:03Z</time>
      </trkpt>
      <trkpt lat="48.98086" lon="2.01476">
        <ele>93</ele>
        <time>2019-03-02T15:21:10Z</time>
      </trkpt>
      <trkpt lat="48.98079" lon="2.01467">
        <ele>88</ele>
        <time>2019-03-02T15:21:19Z</time>
      </trkpt>
      <trkpt lat="48.98073" lon="2.01453">
        <ele>88</ele>
        <time>2019-03-02T15:21:25Z</time>
      </trkpt>
      <trkpt lat="48.98065" lon="2.01443">
        <ele>88</ele>
        <time>2019-03-02T15:21:32Z</time>
      </trkpt>
      <trkpt lat="48.98057" lon="2.01434">
        <ele>87</ele>
        <time>2019-03-02T15:21:39Z</time>
      </trkpt>
      <trkpt lat="48.98048" lon="2.01428">
        <ele>87</ele>
        <time>2019-03-02T15:21:47Z</time>
      </trkpt>
      <trkpt lat="48.9804" lon="2.01418">
        <ele>86</ele>
        <time>2019-03-02T15:21:55Z</time>
      </trkpt>
      <trkpt lat="48.98033" lon="2.01408">
        <ele>86</ele>
        <time>2019-03-02T15:22:01Z</time>
      </trkpt>
      <trkpt lat="48.98027" lon="2.01396">
        <ele>85</ele>
        <time>2019-03-02T15:22:07Z</time>
      </trkpt>
      <trkpt lat="48.9802" lon="2.01386">
        <ele>85</ele>
        <time>2019-03-02T15:22:15Z</time>
      </trkpt>
      <trkpt lat="48.98013" lon="2.01376">
        <ele>85</ele>
        <time>2019-03-02T15:22:22Z</time>
      </trkpt>
      <trkpt lat="48.98008" lon="2.01364">
        <ele>85</ele>
        <time>2019-03-02T15:22:29Z</time>
      </trkpt>
      <trkpt lat="48.98003" lon="2.01351">
        <ele>84</ele>
        <time>2019-03-02T15:22:35Z</time>
      </trkpt>
      <trkpt lat="48.97997" lon="2.01338">
        <ele>82</ele>
        <time>2019-03-02T15:22:44Z</time>
      </trkpt>
      <trkpt lat="48.97988" lon="2.01336">
        <ele>81</ele>
        <time>2019-03-02T15:22:53Z</time>
      </trkpt>
      <trkpt lat="48.97978" lon="2.01334">
        <ele>80</ele>
        <time>2019-03-02T15:23:01Z</time>
      </trkpt>
      <trkpt lat="48.97968" lon="2.01335">
        <ele>80</ele>
        <time>2019-03-02T15:23:07Z</time>
      </trkpt>
      <trkpt lat="48.97958" lon="2.01334">
        <ele>79</ele>
        <time>2019-03-02T15:23:14Z</time>
      </trkpt>
      <trkpt lat="48.97949" lon="2.01332">
        <ele>78</ele>
        <time>2019-03-02T15:23:20Z</time>
      </trkpt>
      <trkpt lat="48.97938" lon="2.01332">
        <ele>77</ele>
        <time>2019-03-02T15:23:27Z</time>
      </trkpt>
      <trkpt lat="48.97928" lon="2.01337">
        <ele>77</ele>
        <time>2019-03-02T15:23:33Z</time>
      </trkpt>
      <trkpt lat="48.97921" lon="2.01347">
        <ele>77</ele>
        <time>2019-03-02T15:23:41Z</time>
      </trkpt>
      <trkpt lat="48.97917" lon="2.0136">
        <ele>77</ele>
        <time>2019-03-02T15:23:47Z</time>
      </trkpt>
      <trkpt lat="48.97908" lon="2.01361">
        <ele>74</ele>
        <time>2019-03-02T15:23:55Z</time>
      </trkpt>
      <trkpt lat="48.97898" lon="2.01356">
        <ele>73</ele>
        <time>2019-03-02T15:24:01Z</time>
      </trkpt>
      <trkpt lat="48.97888" lon="2.01355">
        <ele>73</ele>
        <time>2019-03-02T15:24:08Z</time>
      </trkpt>
      <trkpt lat="48.97878" lon="2.01353">
        <ele>72</ele>
        <time>2019-03-02T15:24:14Z</time>
      </trkpt>
      <trkpt lat="48.9787" lon="2.01348">
        <ele>72</ele>
        <time>2019-03-02T15:24:21Z</time>
      </trkpt>
      <trkpt lat="48.97859" lon="2.01346">
        <ele>71</ele>
        <time>2019-03-02T15:24:29Z</time>
      </trkpt>
      <trkpt lat="48.9785" lon="2.01339">
        <ele>70</ele>
        <time>2019-03-02T15:24:34Z</time>
      </trkpt>
      <trkpt lat="48.97839" lon="2.01334">
        <ele>69</ele>
        <time>2019-03-02T15:24:42Z</time>
      </trkpt>
      <trkpt lat="48.9783" lon="2.01327">
        <ele>67</ele>
        <time>2019-03-02T15:24:49Z</time>
      </trkpt>
      <trkpt lat="48.97823" lon="2.01318">
        <ele>67</ele>
        <time>2019-03-02T15:24:58Z</time>
      </trkpt>
      <trkpt lat="48.97815" lon="2.01312">
        <ele>66</ele>
        <time>2019-03-02T15:25:04Z</time>
      </trkpt>
      <trkpt lat="48.97805" lon="2.01308">
        <ele>66</ele>
        <time>2019-03-02T15:25:09Z</time>
      </trkpt>
      <trkpt lat="48.97795" lon="2.01304">
        <ele>65</ele>
        <time>2019-03-02T15:25:18Z</time>
      </trkpt>
      <trkpt lat="48.97787" lon="2.01292">
        <ele>65</ele>
        <time>2019-03-02T15:25:27Z</time>
      </trkpt>
      <trkpt lat="48.97778" lon="2.01286">
        <ele>65</ele>
        <time>2019-03-02T15:25:33Z</time>
      </trkpt>
      <trkpt lat="48.97768" lon="2.01288">
        <ele>65</ele>
        <time>2019-03-02T15:25:42Z</time>
      </trkpt>
      <trkpt lat="48.97759" lon="2.01288">
        <ele>64</ele>
        <time>2019-03-02T15:25:53Z</time>
      </trkpt>
      <trkpt lat="48.97749" lon="2.01288">
        <ele>62</ele>
        <time>2019-03-02T15:25:59Z</time>
      </trkpt>
      <trkpt lat="48.9774" lon="2.01284">
        <ele>62</ele>
        <time>2019-03-02T15:26:07Z</time>
      </trkpt>
      <trkpt lat="48.9773" lon="2.01284">
        <ele>62</ele>
        <time>2019-03-02T15:26:12Z</time>
      </trkpt>
      <trkpt lat="48.9772" lon="2.01285">
        <ele>62</ele>
        <time>2019-03-02T15:26:21Z</time>
      </trkpt>
      <trkpt lat="48.97711" lon="2.01281">
        <ele>62</ele>
        <time>2019-03-02T15:26:30Z</time>
      </trkpt>
      <trkpt lat="48.97702" lon="2.01276">
        <ele>62</ele>
        <time>2019-03-02T15:26:36Z</time>
      </trkpt>
      <trkpt lat="48.97692" lon="2.01274">
        <ele>62</ele>
        <time>2019-03-02T15:26:46Z</time>
      </trkpt>
      <trkpt lat="48.97682" lon="2.01271">
        <ele>61</ele>
        <time>2019-03-02T15:26:53Z</time>
      </trkpt>
      <trkpt lat="48.97673" lon="2.01268">
        <ele>61</ele>
        <time>2019-03-02T15:27:02Z</time>
      </trkpt>
      <trkpt lat="48.97675" lon="2.01254">
        <ele>60</ele>
        <time>2019-03-02T15:27:29Z</time>
      </trkpt>
      <trkpt lat="48.97683" lon="2.01247">
        <ele>59</ele>
        <time>2019-03-02T15:27:36Z</time>
      </trkpt>
      <trkpt lat="48.97687" lon="2.01235">
        <ele>59</ele>
        <time>2019-03-02T15:27:43Z</time>
      </trkpt>
      <trkpt lat="48.97693" lon="2.01223">
        <ele>58</ele>
        <time>2019-03-02T15:27:53Z</time>
      </trkpt>
      <trkpt lat="48.97689" lon="2.01209">
        <ele>58</ele>
        <time>2019-03-02T15:28:49Z</time>
      </trkpt>
      <trkpt lat="48.97684" lon="2.01196">
        <ele>57</ele>
        <time>2019-03-02T15:28:58Z</time>
      </trkpt>
      <trkpt lat="48.97678" lon="2.01185">
        <ele>56</ele>
        <time>2019-03-02T15:29:06Z</time>
      </trkpt>
      <trkpt lat="48.97675" lon="2.01172">
        <ele>55</ele>
        <time>2019-03-02T15:29:16Z</time>
      </trkpt>
      <trkpt lat="48.97669" lon="2.01161">
        <ele>53</ele>
        <time>2019-03-02T15:29:27Z</time>
      </trkpt>
      <trkpt lat="48.97662" lon="2.01151">
        <ele>52</ele>
        <time>2019-03-02T15:29:42Z</time>
      </trkpt>
      <trkpt lat="48.97656" lon="2.0114">
        <ele>52</ele>
        <time>2019-03-02T15:29:49Z</time>
      </trkpt>
      <trkpt lat="48.97651" lon="2.01128">
        <ele>51</ele>
        <time>2019-03-02T15:29:57Z</time>
      </trkpt>
      <trkpt lat="48.97646" lon="2.01117">
        <ele>51</ele>
        <time>2019-03-02T15:30:07Z</time>
      </trkpt>
      <trkpt lat="48.9764" lon="2.01104">
        <ele>51</ele>
        <time>2019-03-02T15:30:15Z</time>
      </trkpt>
      <trkpt lat="48.97634" lon="2.01092">
        <ele>51</ele>
        <time>2019-03-02T15:30:23Z</time>
      </trkpt>
      <trkpt lat="48.9763" lon="2.0108">
        <ele>49</ele>
        <time>2019-03-02T15:30:29Z</time>
      </trkpt>
      <trkpt lat="48.97625" lon="2.01068">
        <ele>49</ele>
        <time>2019-03-02T15:30:37Z</time>
      </trkpt>
      <trkpt lat="48.97619" lon="2.01056">
        <ele>49</ele>
        <time>2019-03-02T15:30:47Z</time>
      </trkpt>
      <trkpt lat="48.97612" lon="2.01046">
        <ele>49</ele>
        <time>2019-03-02T15:30:53Z</time>
      </trkpt>
      <trkpt lat="48.97607" lon="2.01034">
        <ele>49</ele>
        <time>2019-03-02T15:31:02Z</time>
      </trkpt>
      <trkpt lat="48.97611" lon="2.0102">
        <ele>48</ele>
        <time>2019-03-02T15:31:12Z</time>
      </trkpt>
      <trkpt lat="48.97603" lon="2.01009">
        <ele>48</ele>
        <time>2019-03-02T15:31:22Z</time>
      </trkpt>
      <trkpt lat="48.97593" lon="2.01006">
        <ele>48</ele>
        <time>2019-03-02T15:31:28Z</time>
      </trkpt>
      <trkpt lat="48.97584" lon="2.01002">
        <ele>47</ele>
        <time>2019-03-02T15:31:34Z</time>
      </trkpt>
      <trkpt lat="48.97578" lon="2.00989">
        <ele>46</ele>
        <time>2019-03-02T15:31:50Z</time>
      </trkpt>
      <trkpt lat="48.97571" lon="2.00968">
        <ele>44</ele>
        <time>2019-03-02T15:32:11Z</time>
      </trkpt>
      <trkpt lat="48.97564" lon="2.00954">
        <ele>44</ele>
        <time>2019-03-02T15:32:18Z</time>
      </trkpt>
      <trkpt lat="48.97555" lon="2.00949">
        <ele>43</ele>
        <time>2019-03-02T15:32:24Z</time>
      </trkpt>
      <trkpt lat="48.97547" lon="2.00954">
        <ele>43</ele>
        <time>2019-03-02T15:32:29Z</time>
      </trkpt>
      <trkpt lat="48.97538" lon="2.0096">
        <ele>43</ele>
        <time>2019-03-02T15:32:35Z</time>
      </trkpt>
      <trkpt lat="48.97529" lon="2.00966">
        <ele>43</ele>
        <time>2019-03-02T15:32:42Z</time>
      </trkpt>
      <trkpt lat="48.9752" lon="2.00973">
        <ele>43</ele>
        <time>2019-03-02T15:32:49Z</time>
      </trkpt>
      <trkpt lat="48.9751" lon="2.00981">
        <ele>43</ele>
        <time>2019-03-02T15:32:57Z</time>
      </trkpt>
      <trkpt lat="48.97503" lon="2.00988">
        <ele>44</ele>
        <time>2019-03-02T15:33:05Z</time>
      </trkpt>
      <trkpt lat="48.97495" lon="2.00996">
        <ele>43</ele>
        <time>2019-03-02T15:33:12Z</time>
      </trkpt>
      <trkpt lat="48.97486" lon="2.01">
        <ele>44</ele>
        <time>2019-03-02T15:33:17Z</time>
      </trkpt>
      <trkpt lat="48.97478" lon="2.0101">
        <ele>44</ele>
        <time>2019-03-02T15:33:23Z</time>
      </trkpt>
      <trkpt lat="48.97471" lon="2.0102">
        <ele>44</ele>
        <time>2019-03-02T15:33:29Z</time>
      </trkpt>
      <trkpt lat="48.97463" lon="2.01029">
        <ele>44</ele>
        <time>2019-03-02T15:33:35Z</time>
      </trkpt>
      <trkpt lat="48.97454" lon="2.01038">
        <ele>44</ele>
        <time>2019-03-02T15:33:44Z</time>
      </trkpt>
      <trkpt lat="48.97445" lon="2.01043">
        <ele>44</ele>
        <time>2019-03-02T15:33:49Z</time>
      </trkpt>
      <trkpt lat="48.97438" lon="2.01052">
        <ele>45</ele>
        <time>2019-03-02T15:33:56Z</time>
      </trkpt>
      <trkpt lat="48.9743" lon="2.01061">
        <ele>45</ele>
        <time>2019-03-02T15:34:01Z</time>
      </trkpt>
      <trkpt lat="48.97423" lon="2.0107">
        <ele>45</ele>
        <time>2019-03-02T15:34:07Z</time>
      </trkpt>
      <trkpt lat="48.97416" lon="2.01081">
        <ele>46</ele>
        <time>2019-03-02T15:34:14Z</time>
      </trkpt>
      <trkpt lat="48.9741" lon="2.01091">
        <ele>46</ele>
        <time>2019-03-02T15:34:21Z</time>
      </trkpt>
      <trkpt lat="48.97401" lon="2.01087">
        <ele>46</ele>
        <time>2019-03-02T15:35:19Z</time>
      </trkpt>
      <trkpt lat="48.97395" lon="2.01075">
        <ele>43</ele>
        <time>2019-03-02T15:35:27Z</time>
      </trkpt>
      <trkpt lat="48.9739" lon="2.01062">
        <ele>43</ele>
        <time>2019-03-02T15:35:35Z</time>
      </trkpt>
      <trkpt lat="48.97381" lon="2.01055">
        <ele>42</ele>
        <time>2019-03-02T15:35:43Z</time>
      </trkpt>
      <trkpt lat="48.97372" lon="2.01052">
        <ele>42</ele>
        <time>2019-03-02T15:35:50Z</time>
      </trkpt>
      <trkpt lat="48.97363" lon="2.01048">
        <ele>41</ele>
        <time>2019-03-02T15:35:56Z</time>
      </trkpt>
      <trkpt lat="48.97354" lon="2.01043">
        <ele>41</ele>
        <time>2019-03-02T15:36:02Z</time>
      </trkpt>
      <trkpt lat="48.97344" lon="2.0104">
        <ele>41</ele>
        <time>2019-03-02T15:36:09Z</time>
      </trkpt>
      <trkpt lat="48.97333" lon="2.01036">
        <ele>39</ele>
        <time>2019-03-02T15:36:16Z</time>
      </trkpt>
      <trkpt lat="48.97324" lon="2.01032">
        <ele>39</ele>
        <time>2019-03-02T15:36:23Z</time>
      </trkpt>
      <trkpt lat="48.97315" lon="2.01028">
        <ele>39</ele>
        <time>2019-03-02T15:36:30Z</time>
      </trkpt>
      <trkpt lat="48.97305" lon="2.01025">
        <ele>39</ele>
        <time>2019-03-02T15:36:37Z</time>
      </trkpt>
      <trkpt lat="48.97296" lon="2.01024">
        <ele>38</ele>
        <time>2019-03-02T15:36:45Z</time>
      </trkpt>
      <trkpt lat="48.97287" lon="2.0102">
        <ele>38</ele>
        <time>2019-03-02T15:36:51Z</time>
      </trkpt>
      <trkpt lat="48.97278" lon="2.01012">
        <ele>38</ele>
        <time>2019-03-02T15:37:01Z</time>
      </trkpt>
      <trkpt lat="48.97275" lon="2.00998">
        <ele>35</ele>
        <time>2019-03-02T15:37:07Z</time>
      </trkpt>
      <trkpt lat="48.97272" lon="2.00984">
        <ele>35</ele>
        <time>2019-03-02T15:37:16Z</time>
      </trkpt>
      <trkpt lat="48.9727" lon="2.00969">
        <ele>35</ele>
        <time>2019-03-02T15:37:23Z</time>
      </trkpt>
      <trkpt lat="48.9726" lon="2.00966">
        <ele>35</ele>
        <time>2019-03-02T15:37:30Z</time>
      </trkpt>
      <trkpt lat="48.9725" lon="2.00967">
        <ele>35</ele>
        <time>2019-03-02T15:37:36Z</time>
      </trkpt>
      <trkpt lat="48.9724" lon="2.00972">
        <ele>34</ele>
        <time>2019-03-02T15:37:42Z</time>
      </trkpt>
      <trkpt lat="48.97231" lon="2.00974">
        <ele>33</ele>
        <time>2019-03-02T15:37:47Z</time>
      </trkpt>
      <trkpt lat="48.97221" lon="2.00976">
        <ele>33</ele>
        <time>2019-03-02T15:37:53Z</time>
      </trkpt>
      <trkpt lat="48.9721" lon="2.00978">
        <ele>33</ele>
        <time>2019-03-02T15:38:00Z</time>
      </trkpt>
      <trkpt lat="48.97201" lon="2.00983">
        <ele>33</ele>
        <time>2019-03-02T15:38:06Z</time>
      </trkpt>
      <trkpt lat="48.97192" lon="2.00988">
        <ele>33</ele>
        <time>2019-03-02T15:38:14Z</time>
      </trkpt>
      <trkpt lat="48.97184" lon="2.00982">
        <ele>33</ele>
        <time>2019-03-02T15:38:21Z</time>
      </trkpt>
      <trkpt lat="48.97179" lon="2.0097">
        <ele>33</ele>
        <time>2019-03-02T15:38:26Z</time>
      </trkpt>
      <trkpt lat="48.97175" lon="2.00955">
        <ele>33</ele>
        <time>2019-03-02T15:38:31Z</time>
      </trkpt>
      <trkpt lat="48.97171" lon="2.00941">
        <ele>32</ele>
        <time>2019-03-02T15:38:38Z</time>
      </trkpt>
      <trkpt lat="48.97168" lon="2.00928">
        <ele>32</ele>
        <time>2019-03-02T15:38:45Z</time>
      </trkpt>
      <trkpt lat="48.97166" lon="2.00912">
        <ele>31</ele>
        <time>2019-03-02T15:38:52Z</time>
      </trkpt>
      <trkpt lat="48.97163" lon="2.00898">
        <ele>30</ele>
        <time>2019-03-02T15:38:58Z</time>
      </trkpt>
      <trkpt lat="48.97159" lon="2.00884">
        <ele>29</ele>
        <time>2019-03-02T15:39:05Z</time>
      </trkpt>
      <trkpt lat="48.97155" lon="2.00871">
        <ele>29</ele>
        <time>2019-03-02T15:39:11Z</time>
      </trkpt>
      <trkpt lat="48.97152" lon="2.00857">
        <ele>29</ele>
        <time>2019-03-02T15:39:19Z</time>
      </trkpt>
      <trkpt lat="48.97144" lon="2.00851">
        <ele>29</ele>
        <time>2019-03-02T15:39:28Z</time>
      </trkpt>
      <trkpt lat="48.9715" lon="2.0084">
        <ele>29</ele>
        <time>2019-03-02T15:39:49Z</time>
      </trkpt>
      <trkpt lat="48.97162" lon="2.00834">
        <ele>29</ele>
        <time>2019-03-02T15:39:56Z</time>
      </trkpt>
      <trkpt lat="48.97171" lon="2.00826">
        <ele>29</ele>
        <time>2019-03-02T15:40:03Z</time>
      </trkpt>
      <trkpt lat="48.97179" lon="2.00819">
        <ele>28</ele>
        <time>2019-03-02T15:40:09Z</time>
      </trkpt>
      <trkpt lat="48.97187" lon="2.00813">
        <ele>28</ele>
        <time>2019-03-02T15:40:17Z</time>
      </trkpt>
      <trkpt lat="48.97197" lon="2.0081">
        <ele>28</ele>
        <time>2019-03-02T15:40:24Z</time>
      </trkpt>
      <trkpt lat="48.97206" lon="2.00806">
        <ele>28</ele>
        <time>2019-03-02T15:40:32Z</time>
      </trkpt>
      <trkpt lat="48.97215" lon="2.008">
        <ele>28</ele>
        <time>2019-03-02T15:40:36Z</time>
      </trkpt>
      <trkpt lat="48.97224" lon="2.00793">
        <ele>28</ele>
        <time>2019-03-02T15:40:42Z</time>
      </trkpt>
      <trkpt lat="48.97234" lon="2.00788">
        <ele>28</ele>
        <time>2019-03-02T15:40:48Z</time>
      </trkpt>
      <trkpt lat="48.97243" lon="2.00782">
        <ele>28</ele>
        <time>2019-03-02T15:40:55Z</time>
      </trkpt>
      <trkpt lat="48.97253" lon="2.00777">
        <ele>28</ele>
        <time>2019-03-02T15:41:01Z</time>
      </trkpt>
      <trkpt lat="48.97262" lon="2.00769">
        <ele>28</ele>
        <time>2019-03-02T15:41:07Z</time>
      </trkpt>
      <trkpt lat="48.97257" lon="2.00757">
        <ele>28</ele>
        <time>2019-03-02T15:41:17Z</time>
      </trkpt>
      <trkpt lat="48.97252" lon="2.00743">
        <ele>27</ele>
        <time>2019-03-02T15:41:24Z</time>
      </trkpt>
      <trkpt lat="48.97249" lon="2.00729">
        <ele>26</ele>
        <time>2019-03-02T15:41:30Z</time>
      </trkpt>
      <trkpt lat="48.97247" lon="2.00714">
        <ele>26</ele>
        <time>2019-03-02T15:41:38Z</time>
      </trkpt>
      <trkpt lat="48.97245" lon="2.00699">
        <ele>25</ele>
        <time>2019-03-02T15:41:45Z</time>
      </trkpt>
      <trkpt lat="48.97244" lon="2.00684">
        <ele>25</ele>
        <time>2019-03-02T15:41:51Z</time>
      </trkpt>
      <trkpt lat="48.97241" lon="2.0067">
        <ele>25</ele>
        <time>2019-03-02T15:41:58Z</time>
      </trkpt>
      <trkpt lat="48.97239" lon="2.00654">
        <ele>24</ele>
        <time>2019-03-02T15:42:05Z</time>
      </trkpt>
      <trkpt lat="48.97236" lon="2.0064">
        <ele>24</ele>
        <time>2019-03-02T15:42:11Z</time>
      </trkpt>
      <trkpt lat="48.97232" lon="2.00625">
        <ele>24</ele>
        <time>2019-03-02T15:42:19Z</time>
      </trkpt>
      <trkpt lat="48.9723" lon="2.00611">
        <ele>24</ele>
        <time>2019-03-02T15:42:25Z</time>
      </trkpt>
      <trkpt lat="48.97228" lon="2.00597">
        <ele>24</ele>
        <time>2019-03-02T15:42:32Z</time>
      </trkpt>
      <trkpt lat="48.97227" lon="2.00582">
        <ele>23</ele>
        <time>2019-03-02T15:42:38Z</time>
      </trkpt>
      <trkpt lat="48.97224" lon="2.00568">
        <ele>23</ele>
        <time>2019-03-02T15:42:45Z</time>
      </trkpt>
      <trkpt lat="48.97222" lon="2.00554">
        <ele>23</ele>
        <time>2019-03-02T15:42:52Z</time>
      </trkpt>
      <trkpt lat="48.9722" lon="2.0054">
        <ele>23</ele>
        <time>2019-03-02T15:42:59Z</time>
      </trkpt>
      <trkpt lat="48.97218" lon="2.00526">
        <ele>23</ele>
        <time>2019-03-02T15:43:08Z</time>
      </trkpt>
      <trkpt lat="48.97218" lon="2.0051">
        <ele>23</ele>
        <time>2019-03-02T15:43:16Z</time>
      </trkpt>
      <trkpt lat="48.97216" lon="2.00496">
        <ele>21</ele>
        <time>2019-03-02T15:43:24Z</time>
      </trkpt>
      <trkpt lat="48.97212" lon="2.00482">
        <ele>20</ele>
        <time>2019-03-02T15:43:30Z</time>
      </trkpt>
      <trkpt lat="48.9721" lon="2.00468">
        <ele>20</ele>
        <time>2019-03-02T15:43:36Z</time>
      </trkpt>
      <trkpt lat="48.97206" lon="2.00455">
        <ele>19</ele>
        <time>2019-03-02T15:43:45Z</time>
      </trkpt>
      <trkpt lat="48.972" lon="2.00445">
        <ele>19</ele>
        <time>2019-03-02T15:43:52Z</time>
      </trkpt>
      <trkpt lat="48.97191" lon="2.00443">
        <ele>19</ele>
        <time>2019-03-02T15:44:00Z</time>
      </trkpt>
      <trkpt lat="48.97182" lon="2.00446">
        <ele>19</ele>
        <time>2019-03-02T15:44:42Z</time>
      </trkpt>
      <trkpt lat="48.97172" lon="2.00445">
        <ele>18</ele>
        <time>2019-03-02T15:44:48Z</time>
      </trkpt>
      <trkpt lat="48.97162" lon="2.00444">
        <ele>18</ele>
        <time>2019-03-02T15:44:56Z</time>
      </trkpt>
      <trkpt lat="48.97153" lon="2.00443">
        <ele>18</ele>
        <time>2019-03-02T15:45:09Z</time>
      </trkpt>
      <trkpt lat="48.97144" lon="2.00445">
        <ele>19</ele>
        <time>2019-03-02T15:45:17Z</time>
      </trkpt>
      <trkpt lat="48.97133" lon="2.00441">
        <ele>19</ele>
        <time>2019-03-02T15:45:23Z</time>
      </trkpt>
      <trkpt lat="48.97123" lon="2.00438">
        <ele>19</ele>
        <time>2019-03-02T15:45:28Z</time>
      </trkpt>
      <trkpt lat="48.97113" lon="2.00441">
        <ele>19</ele>
        <time>2019-03-02T15:45:35Z</time>
      </trkpt>
      <trkpt lat="48.97103" lon="2.00444">
        <ele>19</ele>
        <time>2019-03-02T15:45:44Z</time>
      </trkpt>
      <trkpt lat="48.97094" lon="2.00444">
        <ele>18</ele>
        <time>2019-03-02T15:45:50Z</time>
      </trkpt>
      <trkpt lat="48.97084" lon="2.00443">
        <ele>18</ele>
        <time>2019-03-02T15:45:57Z</time>
      </trkpt>
      <trkpt lat="48.97074" lon="2.00442">
        <ele>19</ele>
        <time>2019-03-02T15:46:03Z</time>
      </trkpt>
      <trkpt lat="48.97064" lon="2.00439">
        <ele>19</ele>
        <time>2019-03-02T15:46:13Z</time>
      </trkpt>
      <trkpt lat="48.97055" lon="2.00436">
        <ele>19</ele>
        <time>2019-03-02T15:46:20Z</time>
      </trkpt>
      <trkpt lat="48.97045" lon="2.00433">
        <ele>19</ele>
        <time>2019-03-02T15:46:26Z</time>
      </trkpt>
      <trkpt lat="48.97036" lon="2.00435">
        <ele>19</ele>
        <time>2019-03-02T15:46:33Z</time>
      </trkpt>
      <trkpt lat="48.97027" lon="2.00433">
        <ele>19</ele>
        <time>2019-03-02T15:46:41Z</time>
      </trkpt>
      <trkpt lat="48.97017" lon="2.00432">
        <ele>19</ele>
        <time>2019-03-02T15:46:48Z</time>
      </trkpt>
      <trkpt lat="48.97008" lon="2.00431">
        <ele>19</ele>
        <time>2019-03-02T15:46:56Z</time>
      </trkpt>
      <trkpt lat="48.96998" lon="2.00431">
        <ele>19</ele>
        <time>2019-03-02T15:47:04Z</time>
      </trkpt>
      <trkpt lat="48.96989" lon="2.00428">
        <ele>19</ele>
        <time>2019-03-02T15:47:11Z</time>
      </trkpt>
      <trkpt lat="48.96979" lon="2.00424">
        <ele>19</ele>
        <time>2019-03-02T15:47:18Z</time>
      </trkpt>
      <trkpt lat="48.96969" lon="2.00418">
        <ele>19</ele>
        <time>2019-03-02T15:47:26Z</time>
      </trkpt>
      <trkpt lat="48.96959" lon="2.00407">
        <ele>18</ele>
        <time>2019-03-02T15:47:33Z</time>
      </trkpt>
      <trkpt lat="48.96956" lon="2.00394">
        <ele>18</ele>
        <time>2019-03-02T15:47:40Z</time>
      </trkpt>
      <trkpt lat="48.96955" lon="2.0038">
        <ele>17</ele>
        <time>2019-03-02T15:47:48Z</time>
      </trkpt>
      <trkpt lat="48.96955" lon="2.00394">
        <ele>18</ele>
        <time>2019-03-02T15:55:31Z</time>
      </trkpt>
      <trkpt lat="48.96951" lon="2.00382">
        <ele>17</ele>
        <time>2019-03-02T15:58:25Z</time>
      </trkpt>
      <trkpt lat="48.96957" lon="2.00393">
        <ele>18</ele>
        <time>2019-03-02T16:01:52Z</time>
      </trkpt>
      <trkpt lat="48.96961" lon="2.00406">
        <ele>18</ele>
        <time>2019-03-02T16:01:59Z</time>
      </trkpt>
      <trkpt lat="48.96963" lon="2.0042">
        <ele>19</ele>
        <time>2019-03-02T16:02:07Z</time>
      </trkpt>
      <trkpt lat="48.96971" lon="2.00427">
        <ele>19</ele>
        <time>2019-03-02T16:02:24Z</time>
      </trkpt>
      <trkpt lat="48.96993" lon="2.00422">
        <ele>18</ele>
        <time>2019-03-02T16:02:36Z</time>
      </trkpt>
      <trkpt lat="48.97001" lon="2.00428">
        <ele>19</ele>
        <time>2019-03-02T16:02:41Z</time>
      </trkpt>
      <trkpt lat="48.9701" lon="2.0043">
        <ele>19</ele>
        <time>2019-03-02T16:03:08Z</time>
      </trkpt>
      <trkpt lat="48.9702" lon="2.00432">
        <ele>19</ele>
        <time>2019-03-02T16:03:15Z</time>
      </trkpt>
      <trkpt lat="48.9703" lon="2.00435">
        <ele>19</ele>
        <time>2019-03-02T16:03:21Z</time>
      </trkpt>
      <trkpt lat="48.9704" lon="2.00436">
        <ele>19</ele>
        <time>2019-03-02T16:03:30Z</time>
      </trkpt>
      <trkpt lat="48.9705" lon="2.00436">
        <ele>19</ele>
        <time>2019-03-02T16:03:45Z</time>
      </trkpt>
      <trkpt lat="48.97059" lon="2.00438">
        <ele>19</ele>
        <time>2019-03-02T16:03:52Z</time>
      </trkpt>
      <trkpt lat="48.9707" lon="2.00439">
        <ele>18</ele>
        <time>2019-03-02T16:03:58Z</time>
      </trkpt>
      <trkpt lat="48.9708" lon="2.0044">
        <ele>18</ele>
        <time>2019-03-02T16:04:06Z</time>
      </trkpt>
      <trkpt lat="48.97091" lon="2.00442">
        <ele>18</ele>
        <time>2019-03-02T16:04:15Z</time>
      </trkpt>
      <trkpt lat="48.97101" lon="2.00441">
        <ele>18</ele>
        <time>2019-03-02T16:04:22Z</time>
      </trkpt>
      <trkpt lat="48.97111" lon="2.00441">
        <ele>19</ele>
        <time>2019-03-02T16:04:30Z</time>
      </trkpt>
      <trkpt lat="48.97121" lon="2.00443">
        <ele>19</ele>
        <time>2019-03-02T16:04:38Z</time>
      </trkpt>
      <trkpt lat="48.9713" lon="2.00445">
        <ele>19</ele>
        <time>2019-03-02T16:04:47Z</time>
      </trkpt>
      <trkpt lat="48.9714" lon="2.00445">
        <ele>19</ele>
        <time>2019-03-02T16:04:54Z</time>
      </trkpt>
      <trkpt lat="48.97151" lon="2.00446">
        <ele>19</ele>
        <time>2019-03-02T16:05:02Z</time>
      </trkpt>
      <trkpt lat="48.9716" lon="2.00449">
        <ele>19</ele>
        <time>2019-03-02T16:05:10Z</time>
      </trkpt>
      <trkpt lat="48.97171" lon="2.00449">
        <ele>19</ele>
        <time>2019-03-02T16:05:17Z</time>
      </trkpt>
      <trkpt lat="48.97181" lon="2.0045">
        <ele>19</ele>
        <time>2019-03-02T16:05:26Z</time>
      </trkpt>
      <trkpt lat="48.97192" lon="2.00448">
        <ele>19</ele>
        <time>2019-03-02T16:05:34Z</time>
      </trkpt>
      <trkpt lat="48.97201" lon="2.00443">
        <ele>19</ele>
        <time>2019-03-02T16:05:40Z</time>
      </trkpt>
      <trkpt lat="48.97212" lon="2.0044">
        <ele>19</ele>
        <time>2019-03-02T16:05:51Z</time>
      </trkpt>
      <trkpt lat="48.97221" lon="2.00441">
        <ele>19</ele>
        <time>2019-03-02T16:05:57Z</time>
      </trkpt>
      <trkpt lat="48.97232" lon="2.00443">
        <ele>19</ele>
        <time>2019-03-02T16:06:01Z</time>
      </trkpt>
      <trkpt lat="48.97241" lon="2.00443">
        <ele>18</ele>
        <time>2019-03-02T16:06:07Z</time>
      </trkpt>
      <trkpt lat="48.97251" lon="2.00439">
        <ele>19</ele>
        <time>2019-03-02T16:06:17Z</time>
      </trkpt>
      <trkpt lat="48.9726" lon="2.00438">
        <ele>20</ele>
        <time>2019-03-02T16:06:31Z</time>
      </trkpt>
      <trkpt lat="48.97269" lon="2.00433">
        <ele>20</ele>
        <time>2019-03-02T16:06:41Z</time>
      </trkpt>
      <trkpt lat="48.97279" lon="2.00432">
        <ele>20</ele>
        <time>2019-03-02T16:06:45Z</time>
      </trkpt>
      <trkpt lat="48.97288" lon="2.00429">
        <ele>21</ele>
        <time>2019-03-02T16:06:50Z</time>
      </trkpt>
      <trkpt lat="48.97298" lon="2.00427">
        <ele>21</ele>
        <time>2019-03-02T16:06:56Z</time>
      </trkpt>
      <trkpt lat="48.97308" lon="2.00426">
        <ele>22</ele>
        <time>2019-03-02T16:07:06Z</time>
      </trkpt>
      <trkpt lat="48.97319" lon="2.00425">
        <ele>22</ele>
        <time>2019-03-02T16:07:11Z</time>
      </trkpt>
      <trkpt lat="48.97328" lon="2.00428">
        <ele>22</ele>
        <time>2019-03-02T16:07:17Z</time>
      </trkpt>
      <trkpt lat="48.97339" lon="2.00428">
        <ele>23</ele>
        <time>2019-03-02T16:07:23Z</time>
      </trkpt>
      <trkpt lat="48.97348" lon="2.00428">
        <ele>24</ele>
        <time>2019-03-02T16:07:31Z</time>
      </trkpt>
      <trkpt lat="48.97359" lon="2.00425">
        <ele>24</ele>
        <time>2019-03-02T16:07:37Z</time>
      </trkpt>
      <trkpt lat="48.97369" lon="2.00421">
        <ele>24</ele>
        <time>2019-03-02T16:07:45Z</time>
      </trkpt>
      <trkpt lat="48.97378" lon="2.00418">
        <ele>24</ele>
        <time>2019-03-02T16:07:53Z</time>
      </trkpt>
      <trkpt lat="48.97387" lon="2.00415">
        <ele>21</ele>
        <time>2019-03-02T16:08:04Z</time>
      </trkpt>
      <trkpt lat="48.97396" lon="2.00415">
        <ele>22</ele>
        <time>2019-03-02T16:08:11Z</time>
      </trkpt>
      <trkpt lat="48.97407" lon="2.00415">
        <ele>23</ele>
        <time>2019-03-02T16:08:17Z</time>
      </trkpt>
      <trkpt lat="48.97416" lon="2.00416">
        <ele>24</ele>
        <time>2019-03-02T16:08:24Z</time>
      </trkpt>
      <trkpt lat="48.97425" lon="2.0041">
        <ele>22</ele>
        <time>2019-03-02T16:08:30Z</time>
      </trkpt>
      <trkpt lat="48.97434" lon="2.00406">
        <ele>21</ele>
        <time>2019-03-02T16:08:37Z</time>
      </trkpt>
      <trkpt lat="48.97443" lon="2.00401">
        <ele>21</ele>
        <time>2019-03-02T16:08:49Z</time>
      </trkpt>
      <trkpt lat="48.97452" lon="2.00395">
        <ele>20</ele>
        <time>2019-03-02T16:09:00Z</time>
      </trkpt>
      <trkpt lat="48.97461" lon="2.00392">
        <ele>20</ele>
        <time>2019-03-02T16:09:05Z</time>
      </trkpt>
      <trkpt lat="48.9747" lon="2.00386">
        <ele>20</ele>
        <time>2019-03-02T16:09:10Z</time>
      </trkpt>
      <trkpt lat="48.9748" lon="2.00384">
        <ele>20</ele>
        <time>2019-03-02T16:09:18Z</time>
      </trkpt>
      <trkpt lat="48.9749" lon="2.00381">
        <ele>20</ele>
        <time>2019-03-02T16:09:23Z</time>
      </trkpt>
      <trkpt lat="48.975" lon="2.00379">
        <ele>21</ele>
        <time>2019-03-02T16:09:28Z</time>
      </trkpt>
      <trkpt lat="48.9751" lon="2.00376">
        <ele>21</ele>
        <time>2019-03-02T16:09:34Z</time>
      </trkpt>
      <trkpt lat="48.97519" lon="2.00369">
        <ele>21</ele>
        <time>2019-03-02T16:09:43Z</time>
      </trkpt>
      <trkpt lat="48.97529" lon="2.00367">
        <ele>21</ele>
        <time>2019-03-02T16:09:51Z</time>
      </trkpt>
      <trkpt lat="48.97537" lon="2.00363">
        <ele>22</ele>
        <time>2019-03-02T16:09:59Z</time>
      </trkpt>
      <trkpt lat="48.97547" lon="2.00361">
        <ele>22</ele>
        <time>2019-03-02T16:10:05Z</time>
      </trkpt>
      <trkpt lat="48.97557" lon="2.00359">
        <ele>22</ele>
        <time>2019-03-02T16:10:11Z</time>
      </trkpt>
      <trkpt lat="48.97567" lon="2.00356">
        <ele>23</ele>
        <time>2019-03-02T16:10:19Z</time>
      </trkpt>
      <trkpt lat="48.97576" lon="2.00353">
        <ele>23</ele>
        <time>2019-03-02T16:10:24Z</time>
      </trkpt>
      <trkpt lat="48.97586" lon="2.00351">
        <ele>25</ele>
        <time>2019-03-02T16:10:31Z</time>
      </trkpt>
      <trkpt lat="48.97595" lon="2.00345">
        <ele>25</ele>
        <time>2019-03-02T16:10:40Z</time>
      </trkpt>
      <trkpt lat="48.97604" lon="2.00341">
        <ele>25</ele>
        <time>2019-03-02T16:10:48Z</time>
      </trkpt>
      <trkpt lat="48.97614" lon="2.0034">
        <ele>25</ele>
        <time>2019-03-02T16:10:53Z</time>
      </trkpt>
      <trkpt lat="48.97623" lon="2.00339">
        <ele>25</ele>
        <time>2019-03-02T16:11:01Z</time>
      </trkpt>
      <trkpt lat="48.97633" lon="2.00337">
        <ele>25</ele>
        <time>2019-03-02T16:11:08Z</time>
      </trkpt>
      <trkpt lat="48.97641" lon="2.00333">
        <ele>22</ele>
        <time>2019-03-02T16:11:45Z</time>
      </trkpt>
      <trkpt lat="48.9765" lon="2.00327">
        <ele>22</ele>
        <time>2019-03-02T16:11:52Z</time>
      </trkpt>
      <trkpt lat="48.9766" lon="2.00325">
        <ele>23</ele>
        <time>2019-03-02T16:12:01Z</time>
      </trkpt>
      <trkpt lat="48.97668" lon="2.0032">
        <ele>23</ele>
        <time>2019-03-02T16:12:09Z</time>
      </trkpt>
      <trkpt lat="48.97678" lon="2.00318">
        <ele>23</ele>
        <time>2019-03-02T16:12:14Z</time>
      </trkpt>
      <trkpt lat="48.97686" lon="2.00312">
        <ele>22</ele>
        <time>2019-03-02T16:12:20Z</time>
      </trkpt>
      <trkpt lat="48.97695" lon="2.00307">
        <ele>22</ele>
        <time>2019-03-02T16:12:29Z</time>
      </trkpt>
      <trkpt lat="48.97705" lon="2.00301">
        <ele>22</ele>
        <time>2019-03-02T16:12:35Z</time>
      </trkpt>
      <trkpt lat="48.97716" lon="2.00305">
        <ele>22</ele>
        <time>2019-03-02T16:12:37Z</time>
      </trkpt>
      <trkpt lat="48.97725" lon="2.00305">
        <ele>23</ele>
        <time>2019-03-02T16:12:40Z</time>
      </trkpt>
      <trkpt lat="48.97735" lon="2.00304">
        <ele>23</ele>
        <time>2019-03-02T16:12:45Z</time>
      </trkpt>
      <trkpt lat="48.97743" lon="2.00295">
        <ele>23</ele>
        <time>2019-03-02T16:12:53Z</time>
      </trkpt>
      <trkpt lat="48.97752" lon="2.0029">
        <ele>23</ele>
        <time>2019-03-02T16:13:00Z</time>
      </trkpt>
      <trkpt lat="48.97762" lon="2.00286">
        <ele>23</ele>
        <time>2019-03-02T16:13:07Z</time>
      </trkpt>
      <trkpt lat="48.97771" lon="2.0028">
        <ele>23</ele>
        <time>2019-03-02T16:13:15Z</time>
      </trkpt>
      <trkpt lat="48.9778" lon="2.00279">
        <ele>23</ele>
        <time>2019-03-02T16:13:24Z</time>
      </trkpt>
      <trkpt lat="48.97789" lon="2.00277">
        <ele>23</ele>
        <time>2019-03-02T16:13:29Z</time>
      </trkpt>
      <trkpt lat="48.97798" lon="2.00272">
        <ele>23</ele>
        <time>2019-03-02T16:13:37Z</time>
      </trkpt>
      <trkpt lat="48.97807" lon="2.00274">
        <ele>22</ele>
        <time>2019-03-02T16:13:42Z</time>
      </trkpt>
      <trkpt lat="48.97803" lon="2.0026">
        <ele>22</ele>
        <time>2019-03-02T16:13:46Z</time>
      </trkpt>
      <trkpt lat="48.97813" lon="2.00256">
        <ele>21</ele>
        <time>2019-03-02T16:13:56Z</time>
      </trkpt>
      <trkpt lat="48.97823" lon="2.00253">
        <ele>20</ele>
        <time>2019-03-02T16:14:02Z</time>
      </trkpt>
      <trkpt lat="48.97833" lon="2.00249">
        <ele>19</ele>
        <time>2019-03-02T16:14:09Z</time>
      </trkpt>
      <trkpt lat="48.97842" lon="2.00249">
        <ele>19</ele>
        <time>2019-03-02T16:14:14Z</time>
      </trkpt>
      <trkpt lat="48.97852" lon="2.0025">
        <ele>19</ele>
        <time>2019-03-02T16:14:17Z</time>
      </trkpt>
      <trkpt lat="48.97863" lon="2.00249">
        <ele>19</ele>
        <time>2019-03-02T16:14:21Z</time>
      </trkpt>
      <trkpt lat="48.97873" lon="2.00247">
        <ele>19</ele>
        <time>2019-03-02T16:14:28Z</time>
      </trkpt>
      <trkpt lat="48.97884" lon="2.00241">
        <ele>19</ele>
        <time>2019-03-02T16:14:34Z</time>
      </trkpt>
      <trkpt lat="48.97893" lon="2.00236">
        <ele>19</ele>
        <time>2019-03-02T16:14:44Z</time>
      </trkpt>
      <trkpt lat="48.97902" lon="2.00232">
        <ele>19</ele>
        <time>2019-03-02T16:14:50Z</time>
      </trkpt>
      <trkpt lat="48.97911" lon="2.00229">
        <ele>19</ele>
        <time>2019-03-02T16:14:56Z</time>
      </trkpt>
      <trkpt lat="48.97921" lon="2.00224">
        <ele>20</ele>
        <time>2019-03-02T16:15:01Z</time>
      </trkpt>
      <trkpt lat="48.9793" lon="2.00218">
        <ele>20</ele>
        <time>2019-03-02T16:15:08Z</time>
      </trkpt>
      <trkpt lat="48.97938" lon="2.0021">
        <ele>20</ele>
        <time>2019-03-02T16:15:16Z</time>
      </trkpt>
      <trkpt lat="48.97948" lon="2.00205">
        <ele>20</ele>
        <time>2019-03-02T16:15:23Z</time>
      </trkpt>
      <trkpt lat="48.97957" lon="2.00199">
        <ele>20</ele>
        <time>2019-03-02T16:15:29Z</time>
      </trkpt>
      <trkpt lat="48.97966" lon="2.00194">
        <ele>21</ele>
        <time>2019-03-02T16:15:35Z</time>
      </trkpt>
      <trkpt lat="48.97976" lon="2.00188">
        <ele>21</ele>
        <time>2019-03-02T16:15:43Z</time>
      </trkpt>
      <trkpt lat="48.97985" lon="2.00181">
        <ele>21</ele>
        <time>2019-03-02T16:15:50Z</time>
      </trkpt>
      <trkpt lat="48.97994" lon="2.00175">
        <ele>21</ele>
        <time>2019-03-02T16:15:57Z</time>
      </trkpt>
      <trkpt lat="48.98003" lon="2.00171">
        <ele>22</ele>
        <time>2019-03-02T16:16:03Z</time>
      </trkpt>
      <trkpt lat="48.98013" lon="2.00165">
        <ele>22</ele>
        <time>2019-03-02T16:16:10Z</time>
      </trkpt>
      <trkpt lat="48.98022" lon="2.00159">
        <ele>21</ele>
        <time>2019-03-02T16:16:17Z</time>
      </trkpt>
      <trkpt lat="48.98031" lon="2.00152">
        <ele>21</ele>
        <time>2019-03-02T16:16:24Z</time>
      </trkpt>
      <trkpt lat="48.98038" lon="2.00142">
        <ele>21</ele>
        <time>2019-03-02T16:16:55Z</time>
      </trkpt>
      <trkpt lat="48.98046" lon="2.00134">
        <ele>21</ele>
        <time>2019-03-02T16:17:20Z</time>
      </trkpt>
      <trkpt lat="48.98054" lon="2.00126">
        <ele>21</ele>
        <time>2019-03-02T16:17:25Z</time>
      </trkpt>
      <trkpt lat="48.98059" lon="2.00114">
        <ele>21</ele>
        <time>2019-03-02T16:17:32Z</time>
      </trkpt>
      <trkpt lat="48.98064" lon="2.00101">
        <ele>21</ele>
        <time>2019-03-02T16:17:40Z</time>
      </trkpt>
      <trkpt lat="48.98072" lon="2.00093">
        <ele>21</ele>
        <time>2019-03-02T16:17:46Z</time>
      </trkpt>
      <trkpt lat="48.98081" lon="2.00084">
        <ele>22</ele>
        <time>2019-03-02T16:17:54Z</time>
      </trkpt>
      <trkpt lat="48.98089" lon="2.00076">
        <ele>21</ele>
        <time>2019-03-02T16:18:01Z</time>
      </trkpt>
      <trkpt lat="48.98098" lon="2.00069">
        <ele>21</ele>
        <time>2019-03-02T16:18:08Z</time>
      </trkpt>
      <trkpt lat="48.98107" lon="2.00066">
        <ele>21</ele>
        <time>2019-03-02T16:18:15Z</time>
      </trkpt>
      <trkpt lat="48.98117" lon="2.00065">
        <ele>20</ele>
        <time>2019-03-02T16:18:23Z</time>
      </trkpt>
      <trkpt lat="48.98127" lon="2.00059">
        <ele>20</ele>
        <time>2019-03-02T16:18:28Z</time>
      </trkpt>
      <trkpt lat="48.98137" lon="2.00053">
        <ele>20</ele>
        <time>2019-03-02T16:18:36Z</time>
      </trkpt>
      <trkpt lat="48.98146" lon="2.00048">
        <ele>20</ele>
        <time>2019-03-02T16:18:43Z</time>
      </trkpt>
      <trkpt lat="48.98155" lon="2.00044">
        <ele>20</ele>
        <time>2019-03-02T16:18:50Z</time>
      </trkpt>
      <trkpt lat="48.98164" lon="2.00037">
        <ele>20</ele>
        <time>2019-03-02T16:18:59Z</time>
      </trkpt>
      <trkpt lat="48.98173" lon="2.00033">
        <ele>22</ele>
        <time>2019-03-02T16:19:05Z</time>
      </trkpt>
      <trkpt lat="48.98183" lon="2.0003">
        <ele>22</ele>
        <time>2019-03-02T16:19:13Z</time>
      </trkpt>
      <trkpt lat="48.98186" lon="2.00044">
        <ele>22</ele>
        <time>2019-03-02T16:19:44Z</time>
      </trkpt>
      <trkpt lat="48.9819" lon="2.00057">
        <ele>23</ele>
        <time>2019-03-02T16:19:52Z</time>
      </trkpt>
      <trkpt lat="48.98192" lon="2.00072">
        <ele>23</ele>
        <time>2019-03-02T16:20:01Z</time>
      </trkpt>
      <trkpt lat="48.98195" lon="2.00086">
        <ele>25</ele>
        <time>2019-03-02T16:20:10Z</time>
      </trkpt>
      <trkpt lat="48.98198" lon="2.00102">
        <ele>26</ele>
        <time>2019-03-02T16:20:17Z</time>
      </trkpt>
      <trkpt lat="48.982" lon="2.00117">
        <ele>26</ele>
        <time>2019-03-02T16:20:25Z</time>
      </trkpt>
      <trkpt lat="48.98205" lon="2.00133">
        <ele>27</ele>
        <time>2019-03-02T16:20:34Z</time>
      </trkpt>
      <trkpt lat="48.98208" lon="2.0015">
        <ele>27</ele>
        <time>2019-03-02T16:20:40Z</time>
      </trkpt>
      <trkpt lat="48.98217" lon="2.00153">
        <ele>28</ele>
        <time>2019-03-02T16:20:47Z</time>
      </trkpt>
      <trkpt lat="48.98226" lon="2.00158">
        <ele>29</ele>
        <time>2019-03-02T16:20:54Z</time>
      </trkpt>
      <trkpt lat="48.98233" lon="2.00173">
        <ele>33</ele>
        <time>2019-03-02T16:21:02Z</time>
      </trkpt>
      <trkpt lat="48.98236" lon="2.00186">
        <ele>33</ele>
        <time>2019-03-02T16:21:06Z</time>
      </trkpt>
      <trkpt lat="48.98244" lon="2.00194">
        <ele>34</ele>
        <time>2019-03-02T16:21:22Z</time>
      </trkpt>
      <trkpt lat="48.98238" lon="2.00206">
        <ele>34</ele>
        <time>2019-03-02T16:21:41Z</time>
      </trkpt>
      <trkpt lat="48.98232" lon="2.00217">
        <ele>35</ele>
        <time>2019-03-02T16:21:49Z</time>
      </trkpt>
      <trkpt lat="48.98226" lon="2.00229">
        <ele>35</ele>
        <time>2019-03-02T16:21:56Z</time>
      </trkpt>
      <trkpt lat="48.98225" lon="2.00244">
        <ele>36</ele>
        <time>2019-03-02T16:22:02Z</time>
      </trkpt>
      <trkpt lat="48.98231" lon="2.00256">
        <ele>40</ele>
        <time>2019-03-02T16:22:12Z</time>
      </trkpt>
      <trkpt lat="48.98238" lon="2.00268">
        <ele>40</ele>
        <time>2019-03-02T16:22:18Z</time>
      </trkpt>
      <trkpt lat="48.98245" lon="2.00277">
        <ele>40</ele>
        <time>2019-03-02T16:22:21Z</time>
      </trkpt>
      <trkpt lat="48.9825" lon="2.00289">
        <ele>40</ele>
        <time>2019-03-02T16:22:32Z</time>
      </trkpt>
      <trkpt lat="48.98247" lon="2.00328">
        <ele>42</ele>
        <time>2019-03-02T16:22:45Z</time>
      </trkpt>
      <trkpt lat="48.98254" lon="2.00321">
        <ele>44</ele>
        <time>2019-03-02T16:22:49Z</time>
      </trkpt>
      <trkpt lat="48.98265" lon="2.0031">
        <ele>44</ele>
        <time>2019-03-02T16:22:52Z</time>
      </trkpt>
      <trkpt lat="48.98271" lon="2.00321">
        <ele>44</ele>
        <time>2019-03-02T16:23:01Z</time>
      </trkpt>
      <trkpt lat="48.98281" lon="2.00324">
        <ele>45</ele>
        <time>2019-03-02T16:23:09Z</time>
      </trkpt>
      <trkpt lat="48.98288" lon="2.00334">
        <ele>46</ele>
        <time>2019-03-02T16:23:13Z</time>
      </trkpt>
      <trkpt lat="48.98295" lon="2.00346">
        <ele>47</ele>
        <time>2019-03-02T16:23:18Z</time>
      </trkpt>
      <trkpt lat="48.98289" lon="2.00357">
        <ele>46</ele>
        <time>2019-03-02T16:23:27Z</time>
      </trkpt>
      <trkpt lat="48.98282" lon="2.00365">
        <ele>46</ele>
        <time>2019-03-02T16:23:33Z</time>
      </trkpt>
      <trkpt lat="48.98274" lon="2.00375">
        <ele>46</ele>
        <time>2019-03-02T16:23:41Z</time>
      </trkpt>
      <trkpt lat="48.98266" lon="2.00384">
        <ele>46</ele>
        <time>2019-03-02T16:24:29Z</time>
      </trkpt>
      <trkpt lat="48.98257" lon="2.0039">
        <ele>46</ele>
        <time>2019-03-02T16:24:37Z</time>
      </trkpt>
      <trkpt lat="48.98249" lon="2.00399">
        <ele>44</ele>
        <time>2019-03-02T16:24:43Z</time>
      </trkpt>
      <trkpt lat="48.98242" lon="2.00411">
        <ele>45</ele>
        <time>2019-03-02T16:24:51Z</time>
      </trkpt>
      <trkpt lat="48.98236" lon="2.00422">
        <ele>47</ele>
        <time>2019-03-02T16:24:57Z</time>
      </trkpt>
      <trkpt lat="48.98229" lon="2.00432">
        <ele>47</ele>
        <time>2019-03-02T16:25:04Z</time>
      </trkpt>
      <trkpt lat="48.98223" lon="2.00442">
        <ele>48</ele>
        <time>2019-03-02T16:25:10Z</time>
      </trkpt>
      <trkpt lat="48.98215" lon="2.00451">
        <ele>48</ele>
        <time>2019-03-02T16:25:17Z</time>
      </trkpt>
      <trkpt lat="48.98207" lon="2.00461">
        <ele>48</ele>
        <time>2019-03-02T16:25:25Z</time>
      </trkpt>
      <trkpt lat="48.98199" lon="2.00469">
        <ele>48</ele>
        <time>2019-03-02T16:25:34Z</time>
      </trkpt>
      <trkpt lat="48.9819" lon="2.00472">
        <ele>48</ele>
        <time>2019-03-02T16:25:42Z</time>
      </trkpt>
      <trkpt lat="48.98182" lon="2.00478">
        <ele>48</ele>
        <time>2019-03-02T16:25:48Z</time>
      </trkpt>
      <trkpt lat="48.98173" lon="2.00487">
        <ele>49</ele>
        <time>2019-03-02T16:25:55Z</time>
      </trkpt>
      <trkpt lat="48.98164" lon="2.00495">
        <ele>48</ele>
        <time>2019-03-02T16:26:02Z</time>
      </trkpt>
      <trkpt lat="48.98156" lon="2.005">
        <ele>50</ele>
        <time>2019-03-02T16:26:10Z</time>
      </trkpt>
      <trkpt lat="48.98147" lon="2.00503">
        <ele>50</ele>
        <time>2019-03-02T16:26:16Z</time>
      </trkpt>
      <trkpt lat="48.98138" lon="2.00511">
        <ele>51</ele>
        <time>2019-03-02T16:26:24Z</time>
      </trkpt>
      <trkpt lat="48.98129" lon="2.00519">
        <ele>51</ele>
        <time>2019-03-02T16:26:32Z</time>
      </trkpt>
      <trkpt lat="48.98122" lon="2.00529">
        <ele>51</ele>
        <time>2019-03-02T16:26:40Z</time>
      </trkpt>
      <trkpt lat="48.98117" lon="2.00541">
        <ele>52</ele>
        <time>2019-03-02T16:26:46Z</time>
      </trkpt>
      <trkpt lat="48.9811" lon="2.0055">
        <ele>52</ele>
        <time>2019-03-02T16:26:53Z</time>
      </trkpt>
      <trkpt lat="48.98102" lon="2.00559">
        <ele>52</ele>
        <time>2019-03-02T16:27:01Z</time>
      </trkpt>
    </trkseg>
  </trk>
</gpx>